<?xml version='1.0' encoding='UTF-8'?><gpx version="1.1" creator="JPX - https://github.com/jenetics/jpx" xmlns="http://www.topografix.com/GPX/1/1"><trk><trkseg><trkpt lat="22.2615615" lon="114.0038419"><ele>9.0</ele><time>2026-03-29T03:06:32.245Z</time></trkpt><trkpt lat="22.2615366" lon="114.0039045"><ele>9.0</ele><time>2026-03-29T03:06:34.245Z</time></trkpt><trkpt lat="22.2615173" lon="114.0039777"><ele>9.0</ele><time>2026-03-29T03:06:36.244Z</time></trkpt><trkpt lat="22.2614876" lon="114.0040506"><ele>9.0</ele><time>2026-03-29T03:06:38.245Z</time></trkpt><trkpt lat="22.2614491" lon="114.0041284"><ele>9.0</ele><time>2026-03-29T03:06:40.245Z</time></trkpt><trkpt lat="22.2613942" lon="114.004195"><ele>9.0</ele><time>2026-03-29T03:06:42.244Z</time></trkpt><trkpt lat="22.2613441" lon="114.004261"><ele>12.600000000000001</ele><time>2026-03-29T03:06:44.244Z</time></trkpt><trkpt lat="22.2612953" lon="114.0043322"><ele>16.200000000000003</ele><time>2026-03-29T03:06:46.245Z</time></trkpt><trkpt lat="22.2612438" lon="114.0044134"><ele>19.800000000000004</ele><time>2026-03-29T03:06:48.246Z</time></trkpt><trkpt lat="22.2611871" lon="114.0044876"><ele>23.400000000000002</ele><time>2026-03-29T03:06:50.245Z</time></trkpt><trkpt lat="22.2611285" lon="114.0045778"><ele>27.0</ele><time>2026-03-29T03:06:52.245Z</time></trkpt><trkpt lat="22.2610712" lon="114.0046662"><ele>27.0</ele><time>2026-03-29T03:06:54.244Z</time></trkpt><trkpt lat="22.2610074" lon="114.0047444"><ele>27.000000000000004</ele><time>2026-03-29T03:06:56.245Z</time></trkpt><trkpt lat="22.2609636" lon="114.0048238"><ele>27.000000000000004</ele><time>2026-03-29T03:06:58.245Z</time></trkpt><trkpt lat="22.2609151" lon="114.0049427"><ele>27.0</ele><time>2026-03-29T03:07:01.246Z</time></trkpt><trkpt lat="22.2609054" lon="114.0050296"><ele>27.0</ele><time>2026-03-29T03:07:04.245Z</time></trkpt><trkpt lat="22.2608993" lon="114.0051017"><ele>23.666666666666668</ele><time>2026-03-29T03:07:07.245Z</time></trkpt><trkpt lat="22.2608791" lon="114.0051863"><ele>20.333333333333332</ele><time>2026-03-29T03:07:10.246Z</time></trkpt><trkpt lat="22.2608652" lon="114.0052678"><ele>17.0</ele><time>2026-03-29T03:07:12.246Z</time></trkpt><trkpt lat="22.2608464" lon="114.0053416"><ele>13.666666666666668</ele><time>2026-03-29T03:07:14.245Z</time></trkpt><trkpt lat="22.2608238" lon="114.0054129"><ele>10.333333333333334</ele><time>2026-03-29T03:07:16.246Z</time></trkpt><trkpt lat="22.2608007" lon="114.0054907"><ele>7.0</ele><time>2026-03-29T03:07:18.246Z</time></trkpt><trkpt lat="22.2607689" lon="114.0055775"><ele>7.0</ele><time>2026-03-29T03:07:20.246Z</time></trkpt><trkpt lat="22.2607265" lon="114.0056511"><ele>6.999999999999999</ele><time>2026-03-29T03:07:23.246Z</time></trkpt><trkpt lat="22.2606451" lon="114.0056667"><ele>6.999999999999999</ele><time>2026-03-29T03:08:51.33Z</time></trkpt><trkpt lat="22.2606021" lon="114.0057182"><ele>7.0</ele><time>2026-03-29T03:08:54.354Z</time></trkpt><trkpt lat="22.2604605" lon="114.0057614"><ele>7.0</ele><time>2026-03-29T03:09:34.325Z</time></trkpt><trkpt lat="22.2603886" lon="114.005794"><ele>9.714285714285715</ele><time>2026-03-29T03:09:37.348Z</time></trkpt><trkpt lat="22.2603263" lon="114.0058468"><ele>12.428571428571429</ele><time>2026-03-29T03:09:40.406Z</time></trkpt><trkpt lat="22.2602862" lon="114.0059127"><ele>15.142857142857142</ele><time>2026-03-29T03:09:42.347Z</time></trkpt><trkpt lat="22.2602573" lon="114.0059735"><ele>17.857142857142858</ele><time>2026-03-29T03:09:44.323Z</time></trkpt><trkpt lat="22.2602299" lon="114.006044"><ele>20.571428571428573</ele><time>2026-03-29T03:09:48.391Z</time></trkpt><trkpt lat="22.2601838" lon="114.0061189"><ele>23.285714285714285</ele><time>2026-03-29T03:09:52.343Z</time></trkpt><trkpt lat="22.260194" lon="114.0060447"><ele>26.0</ele><time>2026-03-29T03:10:41.398Z</time></trkpt><trkpt lat="22.2602487" lon="114.0059772"><ele>25.999999999999996</ele><time>2026-03-29T03:10:46.396Z</time></trkpt><trkpt lat="22.2602605" lon="114.0058998"><ele>26.0</ele><time>2026-03-29T03:10:50.348Z</time></trkpt><trkpt lat="22.2602898" lon="114.0058282"><ele>26.0</ele><time>2026-03-29T03:10:55.459Z</time></trkpt><trkpt lat="22.2603287" lon="114.0057553"><ele>26.0</ele><time>2026-03-29T03:10:59.435Z</time></trkpt><trkpt lat="22.2603387" lon="114.0056746"><ele>25.999999999999996</ele><time>2026-03-29T03:11:03.359Z</time></trkpt><trkpt lat="22.2602552" lon="114.0057125"><ele>26.0</ele><time>2026-03-29T03:11:30.431Z</time></trkpt><trkpt lat="22.2601573" lon="114.0057891"><ele>26.0</ele><time>2026-03-29T03:11:36.25Z</time></trkpt><trkpt lat="22.2601062" lon="114.005839"><ele>26.0</ele><time>2026-03-29T03:11:41.25Z</time></trkpt><trkpt lat="22.2600591" lon="114.0058897"><ele>26.0</ele><time>2026-03-29T03:11:45.249Z</time></trkpt><trkpt lat="22.2599922" lon="114.0059436"><ele>26.0</ele><time>2026-03-29T03:12:05.249Z</time></trkpt><trkpt lat="22.2599457" lon="114.0060127"><ele>26.0</ele><time>2026-03-29T03:12:08.249Z</time></trkpt><trkpt lat="22.2599012" lon="114.0060638"><ele>26.0</ele><time>2026-03-29T03:12:11.25Z</time></trkpt><trkpt lat="22.2598663" lon="114.006136"><ele>26.0</ele><time>2026-03-29T03:12:15.25Z</time></trkpt><trkpt lat="22.2598211" lon="114.0061897"><ele>28.428571428571427</ele><time>2026-03-29T03:12:18.25Z</time></trkpt><trkpt lat="22.2597707" lon="114.0062448"><ele>30.85714285714286</ele><time>2026-03-29T03:12:21.25Z</time></trkpt><trkpt lat="22.2597175" lon="114.0062889"><ele>33.28571428571429</ele><time>2026-03-29T03:12:24.25Z</time></trkpt><trkpt lat="22.2596545" lon="114.0063292"><ele>35.714285714285715</ele><time>2026-03-29T03:12:28.249Z</time></trkpt><trkpt lat="22.2595832" lon="114.0063384"><ele>38.142857142857146</ele><time>2026-03-29T03:12:31.251Z</time></trkpt><trkpt lat="22.2595066" lon="114.006355"><ele>40.57142857142858</ele><time>2026-03-29T03:12:34.251Z</time></trkpt><trkpt lat="22.2594577" lon="114.0063078"><ele>43.0</ele><time>2026-03-29T03:12:37.251Z</time></trkpt><trkpt lat="22.2593972" lon="114.0062718"><ele>43.0</ele><time>2026-03-29T03:12:40.25Z</time></trkpt><trkpt lat="22.2593322" lon="114.0062546"><ele>43.0</ele><time>2026-03-29T03:12:43.251Z</time></trkpt><trkpt lat="22.25927" lon="114.0062095"><ele>43.0</ele><time>2026-03-29T03:12:47.251Z</time></trkpt><trkpt lat="22.2592069" lon="114.0061614"><ele>43.0</ele><time>2026-03-29T03:12:51.25Z</time></trkpt><trkpt lat="22.2591461" lon="114.0061242"><ele>43.0</ele><time>2026-03-29T03:12:54.251Z</time></trkpt><trkpt lat="22.2590784" lon="114.0061033"><ele>43.0</ele><time>2026-03-29T03:12:57.251Z</time></trkpt><trkpt lat="22.2589879" lon="114.0061174"><ele>43.714285714285715</ele><time>2026-03-29T03:13:08.251Z</time></trkpt><trkpt lat="22.2589301" lon="114.0061495"><ele>44.42857142857143</ele><time>2026-03-29T03:13:10.251Z</time></trkpt><trkpt lat="22.2588676" lon="114.0061944"><ele>45.14285714285714</ele><time>2026-03-29T03:13:13.251Z</time></trkpt><trkpt lat="22.2588152" lon="114.006235"><ele>45.85714285714286</ele><time>2026-03-29T03:13:16.25Z</time></trkpt><trkpt lat="22.2587617" lon="114.0062889"><ele>46.57142857142857</ele><time>2026-03-29T03:13:21.251Z</time></trkpt><trkpt lat="22.2587226" lon="114.0063583"><ele>47.285714285714285</ele><time>2026-03-29T03:13:25.25Z</time></trkpt><trkpt lat="22.2586877" lon="114.0064193"><ele>48.0</ele><time>2026-03-29T03:13:29.25Z</time></trkpt><trkpt lat="22.2586639" lon="114.0064874"><ele>48.0</ele><time>2026-03-29T03:13:34.252Z</time></trkpt><trkpt lat="22.2586472" lon="114.0065873"><ele>48.0</ele><time>2026-03-29T03:14:17.252Z</time></trkpt><trkpt lat="22.2585932" lon="114.0066411"><ele>48.0</ele><time>2026-03-29T03:14:21.252Z</time></trkpt><trkpt lat="22.2585417" lon="114.0066951"><ele>48.0</ele><time>2026-03-29T03:14:26.252Z</time></trkpt><trkpt lat="22.258483" lon="114.0067372"><ele>48.0</ele><time>2026-03-29T03:14:30.252Z</time></trkpt><trkpt lat="22.2584239" lon="114.0067798"><ele>48.0</ele><time>2026-03-29T03:14:33.251Z</time></trkpt><trkpt lat="22.2583569" lon="114.0068139"><ele>47.99999999999999</ele><time>2026-03-29T03:14:36.253Z</time></trkpt><trkpt lat="22.258293" lon="114.0067974"><ele>48.0</ele><time>2026-03-29T03:14:38.251Z</time></trkpt><trkpt lat="22.2582229" lon="114.0067728"><ele>48.0</ele><time>2026-03-29T03:14:41.252Z</time></trkpt><trkpt lat="22.258164" lon="114.0067171"><ele>48.0</ele><time>2026-03-29T03:14:45.253Z</time></trkpt><trkpt lat="22.2581264" lon="114.0066409"><ele>48.0</ele><time>2026-03-29T03:14:49.253Z</time></trkpt><trkpt lat="22.2581122" lon="114.0065585"><ele>47.99999999999999</ele><time>2026-03-29T03:14:54.252Z</time></trkpt><trkpt lat="22.2580885" lon="114.0064835"><ele>48.0</ele><time>2026-03-29T03:14:57.253Z</time></trkpt><trkpt lat="22.2580972" lon="114.0064055"><ele>47.99999999999999</ele><time>2026-03-29T03:15:01.253Z</time></trkpt><trkpt lat="22.2581035" lon="114.0063356"><ele>48.0</ele><time>2026-03-29T03:15:05.252Z</time></trkpt><trkpt lat="22.2581291" lon="114.0062675"><ele>48.0</ele><time>2026-03-29T03:15:10.253Z</time></trkpt><trkpt lat="22.2581741" lon="114.006206"><ele>48.0</ele><time>2026-03-29T03:15:13.252Z</time></trkpt><trkpt lat="22.2582065" lon="114.0061411"><ele>48.0</ele><time>2026-03-29T03:15:17.253Z</time></trkpt><trkpt lat="22.2581862" lon="114.0060722"><ele>47.99999999999999</ele><time>2026-03-29T03:15:20.252Z</time></trkpt><trkpt lat="22.2581392" lon="114.0060115"><ele>48.0</ele><time>2026-03-29T03:15:25.252Z</time></trkpt><trkpt lat="22.2580955" lon="114.0059459"><ele>47.833333333333336</ele><time>2026-03-29T03:15:29.253Z</time></trkpt><trkpt lat="22.258038" lon="114.0058709"><ele>47.666666666666664</ele><time>2026-03-29T03:15:43.253Z</time></trkpt><trkpt lat="22.2579896" lon="114.0058127"><ele>47.5</ele><time>2026-03-29T03:15:48.253Z</time></trkpt><trkpt lat="22.2579536" lon="114.0057528"><ele>47.33333333333333</ele><time>2026-03-29T03:15:51.252Z</time></trkpt><trkpt lat="22.2579363" lon="114.0056627"><ele>47.166666666666664</ele><time>2026-03-29T03:15:56.254Z</time></trkpt><trkpt lat="22.257887" lon="114.0055765"><ele>47.0</ele><time>2026-03-29T03:15:59.254Z</time></trkpt><trkpt lat="22.2578289" lon="114.0055316"><ele>51.75</ele><time>2026-03-29T03:16:02.254Z</time></trkpt><trkpt lat="22.2577566" lon="114.0055193"><ele>56.5</ele><time>2026-03-29T03:16:05.253Z</time></trkpt><trkpt lat="22.2576919" lon="114.0055145"><ele>61.25</ele><time>2026-03-29T03:16:20.253Z</time></trkpt><trkpt lat="22.2579363" lon="114.0056627"><ele>66.0</ele><time>2026-03-29T03:15:56.254Z</time></trkpt><trkpt lat="22.257887" lon="114.0055765"><ele>66.0</ele><time>2026-03-29T03:15:59.254Z</time></trkpt><trkpt lat="22.2578289" lon="114.0055316"><ele>66.0</ele><time>2026-03-29T03:16:02.254Z</time></trkpt><trkpt lat="22.2577566" lon="114.0055193"><ele>66.0</ele><time>2026-03-29T03:16:05.253Z</time></trkpt><trkpt lat="22.2576919" lon="114.0055145"><ele>66.0</ele><time>2026-03-29T03:16:20.253Z</time></trkpt><trkpt lat="22.2576445" lon="114.0055774"><ele>66.0</ele><time>2026-03-29T03:16:32.253Z</time></trkpt><trkpt lat="22.257598" lon="114.0056613"><ele>66.0</ele><time>2026-03-29T03:16:46.254Z</time></trkpt><trkpt lat="22.2575603" lon="114.0057242"><ele>66.0</ele><time>2026-03-29T03:16:49.253Z</time></trkpt><trkpt lat="22.2575271" lon="114.0057888"><ele>66.0</ele><time>2026-03-29T03:16:53.254Z</time></trkpt><trkpt lat="22.2574658" lon="114.0058171"><ele>66.0</ele><time>2026-03-29T03:16:58.254Z</time></trkpt><trkpt lat="22.257409" lon="114.0058686"><ele>66.0</ele><time>2026-03-29T03:17:02.255Z</time></trkpt><trkpt lat="22.2573678" lon="114.0059356"><ele>66.0</ele><time>2026-03-29T03:17:06.255Z</time></trkpt><trkpt lat="22.2573424" lon="114.0060028"><ele>66.0</ele><time>2026-03-29T03:17:10.254Z</time></trkpt><trkpt lat="22.2573027" lon="114.0060816"><ele>66.0</ele><time>2026-03-29T03:17:14.255Z</time></trkpt><trkpt lat="22.2572387" lon="114.006108"><ele>66.0</ele><time>2026-03-29T03:17:19.255Z</time></trkpt><trkpt lat="22.257201" lon="114.0061701"><ele>67.14285714285714</ele><time>2026-03-29T03:17:23.254Z</time></trkpt><trkpt lat="22.2571424" lon="114.0062107"><ele>68.28571428571429</ele><time>2026-03-29T03:17:27.255Z</time></trkpt><trkpt lat="22.2570907" lon="114.0062519"><ele>69.42857142857143</ele><time>2026-03-29T03:17:30.255Z</time></trkpt><trkpt lat="22.2570246" lon="114.0062801"><ele>70.57142857142857</ele><time>2026-03-29T03:17:35.254Z</time></trkpt><trkpt lat="22.2569639" lon="114.0063361"><ele>71.71428571428571</ele><time>2026-03-29T03:17:38.255Z</time></trkpt><trkpt lat="22.2569027" lon="114.0063781"><ele>72.85714285714286</ele><time>2026-03-29T03:17:41.254Z</time></trkpt><trkpt lat="22.256857" lon="114.0064251"><ele>74.0</ele><time>2026-03-29T03:17:44.254Z</time></trkpt><trkpt lat="22.256817" lon="114.0064887"><ele>74.0</ele><time>2026-03-29T03:17:48.255Z</time></trkpt><trkpt lat="22.2568092" lon="114.0065603"><ele>74.0</ele><time>2026-03-29T03:17:51.256Z</time></trkpt><trkpt lat="22.2567891" lon="114.006629"><ele>74.0</ele><time>2026-03-29T03:17:56.255Z</time></trkpt><trkpt lat="22.256799" lon="114.0067175"><ele>74.0</ele><time>2026-03-29T03:17:59.255Z</time></trkpt><trkpt lat="22.2567664" lon="114.006813"><ele>74.0</ele><time>2026-03-29T03:18:27.257Z</time></trkpt><trkpt lat="22.2566941" lon="114.0068347"><ele>74.0</ele><time>2026-03-29T03:18:32.255Z</time></trkpt><trkpt lat="22.2566217" lon="114.0068738"><ele>74.0</ele><time>2026-03-29T03:18:37.256Z</time></trkpt><trkpt lat="22.2566681" lon="114.0068122"><ele>74.0</ele><time>2026-03-29T03:18:48.256Z</time></trkpt><trkpt lat="22.2567033" lon="114.0067514"><ele>74.0</ele><time>2026-03-29T03:18:52.256Z</time></trkpt><trkpt lat="22.2567118" lon="114.0066693"><ele>74.0</ele><time>2026-03-29T03:18:58.256Z</time></trkpt><trkpt lat="22.2567034" lon="114.0066006"><ele>74.0</ele><time>2026-03-29T03:19:15.257Z</time></trkpt><trkpt lat="22.2566958" lon="114.0065291"><ele>74.0</ele><time>2026-03-29T03:19:38.256Z</time></trkpt><trkpt lat="22.2566677" lon="114.0064609"><ele>74.0</ele><time>2026-03-29T03:20:33.258Z</time></trkpt><trkpt lat="22.2566638" lon="114.0063794"><ele>74.0</ele><time>2026-03-29T03:20:38.258Z</time></trkpt><trkpt lat="22.2566898" lon="114.0063011"><ele>74.0</ele><time>2026-03-29T03:20:45.258Z</time></trkpt><trkpt lat="22.2567099" lon="114.0062289"><ele>74.0</ele><time>2026-03-29T03:20:49.258Z</time></trkpt><trkpt lat="22.2567141" lon="114.0061565"><ele>74.0</ele><time>2026-03-29T03:20:53.258Z</time></trkpt><trkpt lat="22.256765" lon="114.0061036"><ele>74.0</ele><time>2026-03-29T03:20:57.258Z</time></trkpt><trkpt lat="22.2568252" lon="114.0060755"><ele>74.0</ele><time>2026-03-29T03:21:01.258Z</time></trkpt><trkpt lat="22.2568831" lon="114.0060463"><ele>74.0</ele><time>2026-03-29T03:21:05.258Z</time></trkpt><trkpt lat="22.2569455" lon="114.0060258"><ele>74.0</ele><time>2026-03-29T03:21:09.258Z</time></trkpt><trkpt lat="22.2570075" lon="114.0060029"><ele>74.0</ele><time>2026-03-29T03:21:14.258Z</time></trkpt><trkpt lat="22.2570735" lon="114.0059579"><ele>74.0</ele><time>2026-03-29T03:21:17.258Z</time></trkpt><trkpt lat="22.2571028" lon="114.0058893"><ele>74.0</ele><time>2026-03-29T03:21:20.258Z</time></trkpt><trkpt lat="22.2571086" lon="114.0058125"><ele>74.0</ele><time>2026-03-29T03:21:25.259Z</time></trkpt><trkpt lat="22.2571043" lon="114.0057304"><ele>74.0</ele><time>2026-03-29T03:21:31.258Z</time></trkpt><trkpt lat="22.2571479" lon="114.0056766"><ele>74.0</ele><time>2026-03-29T03:21:33.258Z</time></trkpt><trkpt lat="22.2571657" lon="114.0056048"><ele>77.57142857142857</ele><time>2026-03-29T03:21:37.259Z</time></trkpt><trkpt lat="22.2571883" lon="114.005539"><ele>81.14285714285714</ele><time>2026-03-29T03:21:41.259Z</time></trkpt><trkpt lat="22.257235" lon="114.0054597"><ele>84.71428571428572</ele><time>2026-03-29T03:21:46.258Z</time></trkpt><trkpt lat="22.2572437" lon="114.0053903"><ele>88.28571428571428</ele><time>2026-03-29T03:21:50.258Z</time></trkpt><trkpt lat="22.2572052" lon="114.0053331"><ele>91.85714285714285</ele><time>2026-03-29T03:21:54.259Z</time></trkpt><trkpt lat="22.2571856" lon="114.0052684"><ele>95.42857142857143</ele><time>2026-03-29T03:21:59.258Z</time></trkpt><trkpt lat="22.2571845" lon="114.0051993"><ele>99.0</ele><time>2026-03-29T03:22:12.259Z</time></trkpt><trkpt lat="22.2572319" lon="114.0051404"><ele>99.0</ele><time>2026-03-29T03:22:16.259Z</time></trkpt><trkpt lat="22.257236" lon="114.0050631"><ele>99.0</ele><time>2026-03-29T03:22:21.258Z</time></trkpt><trkpt lat="22.2572335" lon="114.0049807"><ele>99.0</ele><time>2026-03-29T03:22:25.259Z</time></trkpt><trkpt lat="22.2572668" lon="114.0049014"><ele>99.0</ele><time>2026-03-29T03:22:31.259Z</time></trkpt><trkpt lat="22.2572881" lon="114.0048372"><ele>99.0</ele><time>2026-03-29T03:22:43.26Z</time></trkpt><trkpt lat="22.2573174" lon="114.0047643"><ele>99.0</ele><time>2026-03-29T03:22:48.26Z</time></trkpt><trkpt lat="22.2573021" lon="114.0046838"><ele>99.0</ele><time>2026-03-29T03:22:53.259Z</time></trkpt><trkpt lat="22.2573139" lon="114.0046043"><ele>97.71428571428572</ele><time>2026-03-29T03:22:58.26Z</time></trkpt><trkpt lat="22.2573324" lon="114.0045371"><ele>96.42857142857142</ele><time>2026-03-29T03:23:03.26Z</time></trkpt><trkpt lat="22.2572596" lon="114.0045395"><ele>95.14285714285714</ele><time>2026-03-29T03:24:06.261Z</time></trkpt><trkpt lat="22.2572245" lon="114.0046101"><ele>93.85714285714286</ele><time>2026-03-29T03:24:09.261Z</time></trkpt><trkpt lat="22.2571978" lon="114.0046741"><ele>92.57142857142858</ele><time>2026-03-29T03:24:13.261Z</time></trkpt><trkpt lat="22.2571819" lon="114.004747"><ele>91.28571428571428</ele><time>2026-03-29T03:24:17.261Z</time></trkpt><trkpt lat="22.2571499" lon="114.0048218"><ele>90.0</ele><time>2026-03-29T03:24:21.261Z</time></trkpt><trkpt lat="22.2570953" lon="114.004865"><ele>91.5</ele><time>2026-03-29T03:24:29.261Z</time></trkpt><trkpt lat="22.2570603" lon="114.0049307"><ele>93.0</ele><time>2026-03-29T03:24:37.261Z</time></trkpt><trkpt lat="22.2570463" lon="114.0050183"><ele>94.5</ele><time>2026-03-29T03:24:42.26Z</time></trkpt><trkpt lat="22.2570026" lon="114.0050755"><ele>96.0</ele><time>2026-03-29T03:24:47.262Z</time></trkpt><trkpt lat="22.2569936" lon="114.0051707"><ele>97.5</ele><time>2026-03-29T03:24:50.262Z</time></trkpt><trkpt lat="22.2569668" lon="114.0052529"><ele>99.0</ele><time>2026-03-29T03:24:53.262Z</time></trkpt><trkpt lat="22.2569759" lon="114.0053369"><ele>99.0</ele><time>2026-03-29T03:24:57.262Z</time></trkpt><trkpt lat="22.2569576" lon="114.0054066"><ele>99.0</ele><time>2026-03-29T03:25:01.262Z</time></trkpt><trkpt lat="22.256924" lon="114.0054657"><ele>99.0</ele><time>2026-03-29T03:25:04.262Z</time></trkpt><trkpt lat="22.2568863" lon="114.0055443"><ele>99.0</ele><time>2026-03-29T03:25:09.261Z</time></trkpt><trkpt lat="22.2568481" lon="114.0055996"><ele>99.0</ele><time>2026-03-29T03:25:12.262Z</time></trkpt><trkpt lat="22.2567873" lon="114.0056294"><ele>99.0</ele><time>2026-03-29T03:25:18.261Z</time></trkpt><trkpt lat="22.2567231" lon="114.0056177"><ele>99.0</ele><time>2026-03-29T03:25:22.262Z</time></trkpt><trkpt lat="22.2566502" lon="114.0056179"><ele>99.0</ele><time>2026-03-29T03:25:25.262Z</time></trkpt><trkpt lat="22.2565817" lon="114.005611"><ele>99.0</ele><time>2026-03-29T03:25:29.262Z</time></trkpt><trkpt lat="22.2565164" lon="114.0055992"><ele>99.0</ele><time>2026-03-29T03:25:33.262Z</time></trkpt><trkpt lat="22.2564374" lon="114.0056249"><ele>99.0</ele><time>2026-03-29T03:25:38.262Z</time></trkpt><trkpt lat="22.2564006" lon="114.0056837"><ele>99.0</ele><time>2026-03-29T03:25:41.262Z</time></trkpt><trkpt lat="22.2563877" lon="114.0057651"><ele>99.0</ele><time>2026-03-29T03:25:44.261Z</time></trkpt><trkpt lat="22.2563739" lon="114.0058336"><ele>99.0</ele><time>2026-03-29T03:25:47.262Z</time></trkpt><trkpt lat="22.2563299" lon="114.0058931"><ele>99.0</ele><time>2026-03-29T03:25:51.263Z</time></trkpt><trkpt lat="22.2563038" lon="114.0059685"><ele>99.0</ele><time>2026-03-29T03:25:56.262Z</time></trkpt><trkpt lat="22.2562413" lon="114.0059881"><ele>99.0</ele><time>2026-03-29T03:26:00.263Z</time></trkpt><trkpt lat="22.2562798" lon="114.0059294"><ele>99.0</ele><time>2026-03-29T03:26:06.263Z</time></trkpt><trkpt lat="22.256327" lon="114.0058384"><ele>99.0</ele><time>2026-03-29T03:26:09.262Z</time></trkpt><trkpt lat="22.2563307" lon="114.0057569"><ele>99.0</ele><time>2026-03-29T03:26:13.262Z</time></trkpt><trkpt lat="22.256358" lon="114.0056773"><ele>99.0</ele><time>2026-03-29T03:26:16.263Z</time></trkpt><trkpt lat="22.2563849" lon="114.0056132"><ele>99.0</ele><time>2026-03-29T03:26:21.263Z</time></trkpt><trkpt lat="22.2564376" lon="114.0055643"><ele>99.0</ele><time>2026-03-29T03:26:25.263Z</time></trkpt><trkpt lat="22.2565141" lon="114.0055637"><ele>99.0</ele><time>2026-03-29T03:26:30.263Z</time></trkpt><trkpt lat="22.256577" lon="114.0055488"><ele>99.0</ele><time>2026-03-29T03:26:34.265Z</time></trkpt><trkpt lat="22.2566513" lon="114.005551"><ele>99.0</ele><time>2026-03-29T03:26:38.263Z</time></trkpt><trkpt lat="22.2567148" lon="114.005551"><ele>99.0</ele><time>2026-03-29T03:26:41.263Z</time></trkpt><trkpt lat="22.256769" lon="114.0055144"><ele>99.0</ele><time>2026-03-29T03:27:11.263Z</time></trkpt><trkpt lat="22.2567923" lon="114.0054429"><ele>99.0</ele><time>2026-03-29T03:27:15.264Z</time></trkpt><trkpt lat="22.2568219" lon="114.0053777"><ele>99.0</ele><time>2026-03-29T03:27:18.263Z</time></trkpt><trkpt lat="22.2567569" lon="114.0054039"><ele>99.0</ele><time>2026-03-29T03:27:29.264Z</time></trkpt><trkpt lat="22.2566985" lon="114.0054301"><ele>99.0</ele><time>2026-03-29T03:27:34.264Z</time></trkpt><trkpt lat="22.2567447" lon="114.0053711"><ele>99.0</ele><time>2026-03-29T03:27:39.264Z</time></trkpt><trkpt lat="22.256761" lon="114.0053046"><ele>99.0</ele><time>2026-03-29T03:27:43.264Z</time></trkpt><trkpt lat="22.2567596" lon="114.0052115"><ele>99.0</ele><time>2026-03-29T03:27:49.263Z</time></trkpt><trkpt lat="22.2567642" lon="114.0051387"><ele>99.0</ele><time>2026-03-29T03:27:53.264Z</time></trkpt><trkpt lat="22.2567885" lon="114.0050482"><ele>99.0</ele><time>2026-03-29T03:27:56.264Z</time></trkpt><trkpt lat="22.2568223" lon="114.0049521"><ele>99.0</ele><time>2026-03-29T03:27:58.265Z</time></trkpt><trkpt lat="22.2568368" lon="114.0048836"><ele>99.0</ele><time>2026-03-29T03:28:00.263Z</time></trkpt><trkpt lat="22.2568202" lon="114.0047928"><ele>99.0</ele><time>2026-03-29T03:28:04.265Z</time></trkpt><trkpt lat="22.2568214" lon="114.0047153"><ele>102.14285714285714</ele><time>2026-03-29T03:28:08.265Z</time></trkpt><trkpt lat="22.2568742" lon="114.0046397"><ele>105.28571428571428</ele><time>2026-03-29T03:28:14.264Z</time></trkpt><trkpt lat="22.2569153" lon="114.0045837"><ele>108.42857142857142</ele><time>2026-03-29T03:28:17.265Z</time></trkpt><trkpt lat="22.2569111" lon="114.0045079"><ele>111.57142857142857</ele><time>2026-03-29T03:28:21.265Z</time></trkpt><trkpt lat="22.2569228" lon="114.0044309"><ele>114.7142857142857</ele><time>2026-03-29T03:28:25.265Z</time></trkpt><trkpt lat="22.2569384" lon="114.0043531"><ele>117.85714285714285</ele><time>2026-03-29T03:28:28.264Z</time></trkpt><trkpt lat="22.2569677" lon="114.0042915"><ele>121.0</ele><time>2026-03-29T03:28:33.265Z</time></trkpt><trkpt lat="22.2570075" lon="114.0042338"><ele>121.0</ele><time>2026-03-29T03:28:37.265Z</time></trkpt><trkpt lat="22.257032" lon="114.0041705"><ele>120.99999999999999</ele><time>2026-03-29T03:28:42.265Z</time></trkpt><trkpt lat="22.2570407" lon="114.0040993"><ele>121.0</ele><time>2026-03-29T03:28:55.265Z</time></trkpt><trkpt lat="22.2570685" lon="114.0040238"><ele>121.0</ele><time>2026-03-29T03:28:58.266Z</time></trkpt><trkpt lat="22.2571054" lon="114.0039555"><ele>120.99999999999999</ele><time>2026-03-29T03:29:02.265Z</time></trkpt><trkpt lat="22.257113" lon="114.003878"><ele>121.0</ele><time>2026-03-29T03:29:05.264Z</time></trkpt><trkpt lat="22.2571209" lon="114.0037992"><ele>121.0</ele><time>2026-03-29T03:29:11.266Z</time></trkpt><trkpt lat="22.2571343" lon="114.0037278"><ele>121.14285714285714</ele><time>2026-03-29T03:29:17.266Z</time></trkpt><trkpt lat="22.2571411" lon="114.0036562"><ele>121.28571428571428</ele><time>2026-03-29T03:29:20.266Z</time></trkpt><trkpt lat="22.2571638" lon="114.0035869"><ele>121.42857142857142</ele><time>2026-03-29T03:29:23.266Z</time></trkpt><trkpt lat="22.2571991" lon="114.0035007"><ele>121.57142857142856</ele><time>2026-03-29T03:29:27.266Z</time></trkpt><trkpt lat="22.2572198" lon="114.0034206"><ele>121.71428571428571</ele><time>2026-03-29T03:29:31.265Z</time></trkpt><trkpt lat="22.2572637" lon="114.003361"><ele>121.85714285714283</ele><time>2026-03-29T03:29:35.266Z</time></trkpt><trkpt lat="22.2573401" lon="114.0033697"><ele>121.99999999999999</ele><time>2026-03-29T03:29:42.266Z</time></trkpt><trkpt lat="22.257415" lon="114.003345"><ele>121.99999999999999</ele><time>2026-03-29T03:29:45.266Z</time></trkpt><trkpt lat="22.2574977" lon="114.0033102"><ele>122.0</ele><time>2026-03-29T03:29:48.265Z</time></trkpt><trkpt lat="22.2575721" lon="114.0033678"><ele>122.0</ele><time>2026-03-29T03:29:51.266Z</time></trkpt><trkpt lat="22.2576037" lon="114.0034415"><ele>122.0</ele><time>2026-03-29T03:29:54.266Z</time></trkpt><trkpt lat="22.2576454" lon="114.0035019"><ele>121.99999999999999</ele><time>2026-03-29T03:29:58.266Z</time></trkpt><trkpt lat="22.257696" lon="114.0035514"><ele>122.0</ele><time>2026-03-29T03:30:01.266Z</time></trkpt><trkpt lat="22.2577265" lon="114.003611"><ele>121.99999999999999</ele><time>2026-03-29T03:30:04.266Z</time></trkpt><trkpt lat="22.2577868" lon="114.0036591"><ele>122.0</ele><time>2026-03-29T03:30:07.267Z</time></trkpt><trkpt lat="22.2578551" lon="114.0036727"><ele>122.0</ele><time>2026-03-29T03:30:12.266Z</time></trkpt><trkpt lat="22.2579169" lon="114.003727"><ele>122.0</ele><time>2026-03-29T03:30:16.266Z</time></trkpt><trkpt lat="22.2579687" lon="114.0038017"><ele>121.99999999999999</ele><time>2026-03-29T03:30:21.266Z</time></trkpt><trkpt lat="22.2580181" lon="114.0038659"><ele>122.0</ele><time>2026-03-29T03:30:26.266Z</time></trkpt><trkpt lat="22.2580852" lon="114.0039021"><ele>122.85714285714283</ele><time>2026-03-29T03:30:30.267Z</time></trkpt><trkpt lat="22.2581527" lon="114.0038949"><ele>123.71428571428571</ele><time>2026-03-29T03:30:33.266Z</time></trkpt><trkpt lat="22.2581812" lon="114.0038179"><ele>124.57142857142856</ele><time>2026-03-29T03:30:38.266Z</time></trkpt><trkpt lat="22.2581706" lon="114.003748"><ele>125.42857142857142</ele><time>2026-03-29T03:30:41.266Z</time></trkpt><trkpt lat="22.2581592" lon="114.0036695"><ele>126.28571428571428</ele><time>2026-03-29T03:30:44.267Z</time></trkpt><trkpt lat="22.2581871" lon="114.0036074"><ele>127.14285714285714</ele><time>2026-03-29T03:30:48.267Z</time></trkpt><trkpt lat="22.2582667" lon="114.0035975"><ele>128.0</ele><time>2026-03-29T03:30:52.267Z</time></trkpt><trkpt lat="22.2583203" lon="114.0035564"><ele>128.0</ele><time>2026-03-29T03:30:57.267Z</time></trkpt><trkpt lat="22.2583863" lon="114.003551"><ele>127.99999999999999</ele><time>2026-03-29T03:31:00.266Z</time></trkpt><trkpt lat="22.2584433" lon="114.0035142"><ele>128.0</ele><time>2026-03-29T03:31:05.268Z</time></trkpt><trkpt lat="22.2585129" lon="114.0035457"><ele>128.0</ele><time>2026-03-29T03:31:10.266Z</time></trkpt><trkpt lat="22.2585745" lon="114.0035925"><ele>127.99999999999999</ele><time>2026-03-29T03:31:13.267Z</time></trkpt><trkpt lat="22.2586277" lon="114.0036494"><ele>128.0</ele><time>2026-03-29T03:31:16.267Z</time></trkpt><trkpt lat="22.2586878" lon="114.003719"><ele>128.0</ele><time>2026-03-29T03:31:19.268Z</time></trkpt><trkpt lat="22.2587512" lon="114.0037983"><ele>127.99999999999999</ele><time>2026-03-29T03:31:22.268Z</time></trkpt><trkpt lat="22.2587874" lon="114.0038825"><ele>128.0</ele><time>2026-03-29T03:31:25.267Z</time></trkpt><trkpt lat="22.2588204" lon="114.003957"><ele>128.0</ele><time>2026-03-29T03:31:28.267Z</time></trkpt><trkpt lat="22.2588538" lon="114.0040179"><ele>128.0</ele><time>2026-03-29T03:31:30.267Z</time></trkpt><trkpt lat="22.2589002" lon="114.0041005"><ele>127.99999999999999</ele><time>2026-03-29T03:31:33.267Z</time></trkpt><trkpt lat="22.2589626" lon="114.0041463"><ele>128.0</ele><time>2026-03-29T03:31:36.267Z</time></trkpt><trkpt lat="22.2589368" lon="114.0040781"><ele>128.0</ele><time>2026-03-29T03:31:55.268Z</time></trkpt><trkpt lat="22.2589124" lon="114.0039989"><ele>127.99999999999999</ele><time>2026-03-29T03:32:00.268Z</time></trkpt><trkpt lat="22.2588848" lon="114.0039364"><ele>128.0</ele><time>2026-03-29T03:32:04.268Z</time></trkpt><trkpt lat="22.2589497" lon="114.0039315"><ele>128.0</ele><time>2026-03-29T03:32:14.268Z</time></trkpt><trkpt lat="22.258947" lon="114.0038597"><ele>127.99999999999999</ele><time>2026-03-29T03:32:17.268Z</time></trkpt><trkpt lat="22.2589598" lon="114.0037797"><ele>128.0</ele><time>2026-03-29T03:32:20.268Z</time></trkpt><trkpt lat="22.2589864" lon="114.0037015"><ele>128.0</ele><time>2026-03-29T03:32:24.268Z</time></trkpt><trkpt lat="22.259029" lon="114.0036428"><ele>125.83333333333333</ele><time>2026-03-29T03:32:28.269Z</time></trkpt><trkpt lat="22.2590913" lon="114.0036254"><ele>123.66666666666666</ele><time>2026-03-29T03:32:32.268Z</time></trkpt><trkpt lat="22.2591732" lon="114.0036085"><ele>121.5</ele><time>2026-03-29T03:32:35.269Z</time></trkpt><trkpt lat="22.2592596" lon="114.0036064"><ele>119.33333333333334</ele><time>2026-03-29T03:32:38.268Z</time></trkpt><trkpt lat="22.2593496" lon="114.0035781"><ele>117.16666666666667</ele><time>2026-03-29T03:32:41.268Z</time></trkpt><trkpt lat="22.2594074" lon="114.0035334"><ele>115.0</ele><time>2026-03-29T03:32:44.268Z</time></trkpt><trkpt lat="22.2594649" lon="114.0034688"><ele>114.99999999999999</ele><time>2026-03-29T03:32:47.269Z</time></trkpt><trkpt lat="22.2595105" lon="114.0034188"><ele>115.0</ele><time>2026-03-29T03:32:50.269Z</time></trkpt><trkpt lat="22.2595526" lon="114.0033548"><ele>114.99999999999999</ele><time>2026-03-29T03:32:53.269Z</time></trkpt><trkpt lat="22.2596171" lon="114.0033187"><ele>114.99999999999999</ele><time>2026-03-29T03:32:58.268Z</time></trkpt><trkpt lat="22.259557" lon="114.003291"><ele>115.0</ele><time>2026-03-29T03:33:20.269Z</time></trkpt><trkpt lat="22.2596245" lon="114.0032886"><ele>114.99999999999999</ele><time>2026-03-29T03:36:41.413Z</time></trkpt><trkpt lat="22.2595558" lon="114.0033045"><ele>114.99999999999999</ele><time>2026-03-29T03:36:56.408Z</time></trkpt><trkpt lat="22.25962" lon="114.0032999"><ele>114.99999999999999</ele><time>2026-03-29T03:39:17.291Z</time></trkpt><trkpt lat="22.2595537" lon="114.0032985"><ele>115.0</ele><time>2026-03-29T03:39:52.399Z</time></trkpt><trkpt lat="22.2596168" lon="114.0033012"><ele>114.99999999999999</ele><time>2026-03-29T03:40:59.356Z</time></trkpt><trkpt lat="22.2596133" lon="114.0032251"><ele>114.99999999999999</ele><time>2026-03-29T03:41:37.368Z</time></trkpt><trkpt lat="22.2596283" lon="114.003292"><ele>115.0</ele><time>2026-03-29T03:43:11.303Z</time></trkpt><trkpt lat="22.2596036" lon="114.0032019"><ele>114.99999999999999</ele><time>2026-03-29T03:49:22.353Z</time></trkpt><trkpt lat="22.2595472" lon="114.0031618"><ele>114.99999999999999</ele><time>2026-03-29T03:49:25.375Z</time></trkpt><trkpt lat="22.2594681" lon="114.0031418"><ele>114.99999999999999</ele><time>2026-03-29T03:49:29.442Z</time></trkpt><trkpt lat="22.2594036" lon="114.0031004"><ele>115.0</ele><time>2026-03-29T03:49:33.396Z</time></trkpt><trkpt lat="22.2593349" lon="114.0030754"><ele>114.99999999999999</ele><time>2026-03-29T03:49:37.464Z</time></trkpt><trkpt lat="22.2592686" lon="114.0030473"><ele>114.99999999999999</ele><time>2026-03-29T03:49:41.416Z</time></trkpt><trkpt lat="22.2591912" lon="114.0030143"><ele>115.0</ele><time>2026-03-29T03:49:45.44Z</time></trkpt><trkpt lat="22.2591295" lon="114.0029959"><ele>114.99999999999999</ele><time>2026-03-29T03:49:48.391Z</time></trkpt><trkpt lat="22.259066" lon="114.002968"><ele>114.99999999999999</ele><time>2026-03-29T03:49:51.435Z</time></trkpt><trkpt lat="22.2590053" lon="114.0029398"><ele>119.33333333333334</ele><time>2026-03-29T03:49:54.434Z</time></trkpt><trkpt lat="22.2589471" lon="114.0028791"><ele>123.66666666666667</ele><time>2026-03-29T03:49:58.473Z</time></trkpt><trkpt lat="22.2589183" lon="114.0028081"><ele>128.0</ele><time>2026-03-29T03:50:01.4Z</time></trkpt><trkpt lat="22.2588822" lon="114.0027393"><ele>132.33333333333334</ele><time>2026-03-29T03:50:04.478Z</time></trkpt><trkpt lat="22.2588459" lon="114.0026458"><ele>136.66666666666666</ele><time>2026-03-29T03:50:08.376Z</time></trkpt><trkpt lat="22.2588337" lon="114.0025731"><ele>141.0</ele><time>2026-03-29T03:50:11.397Z</time></trkpt><trkpt lat="22.2588391" lon="114.0024926"><ele>141.28571428571428</ele><time>2026-03-29T03:50:14.304Z</time></trkpt><trkpt lat="22.2588738" lon="114.0024204"><ele>141.57142857142856</ele><time>2026-03-29T03:50:17.59Z</time></trkpt><trkpt lat="22.2589219" lon="114.0023458"><ele>141.85714285714283</ele><time>2026-03-29T03:50:21.394Z</time></trkpt><trkpt lat="22.2589668" lon="114.0022935"><ele>142.14285714285714</ele><time>2026-03-29T03:50:24.409Z</time></trkpt><trkpt lat="22.2590215" lon="114.0022229"><ele>142.42857142857142</ele><time>2026-03-29T03:50:28.477Z</time></trkpt><trkpt lat="22.2590615" lon="114.0021643"><ele>142.7142857142857</ele><time>2026-03-29T03:50:31.382Z</time></trkpt><trkpt lat="22.2590964" lon="114.0021033"><ele>143.0</ele><time>2026-03-29T03:50:34.406Z</time></trkpt><trkpt lat="22.2591163" lon="114.0020273"><ele>142.99999999999997</ele><time>2026-03-29T03:50:38.253Z</time></trkpt><trkpt lat="22.259109" lon="114.0019572"><ele>143.0</ele><time>2026-03-29T03:50:42.309Z</time></trkpt><trkpt lat="22.2590365" lon="114.0019881"><ele>143.0</ele><time>2026-03-29T03:50:48.354Z</time></trkpt><trkpt lat="22.2589754" lon="114.0020108"><ele>143.0</ele><time>2026-03-29T03:51:17.285Z</time></trkpt><trkpt lat="22.2589088" lon="114.002027"><ele>143.0</ele><time>2026-03-29T03:51:21.286Z</time></trkpt><trkpt lat="22.2589353" lon="114.0021121"><ele>142.99999999999997</ele><time>2026-03-29T03:51:24.285Z</time></trkpt><trkpt lat="22.2589617" lon="114.0021972"><ele>143.0</ele><time>2026-03-29T03:51:27.284Z</time></trkpt><trkpt lat="22.2589109" lon="114.0022687"><ele>143.0</ele><time>2026-03-29T03:51:30.285Z</time></trkpt><trkpt lat="22.2588363" lon="114.0022941"><ele>143.0</ele><time>2026-03-29T03:51:32.284Z</time></trkpt><trkpt lat="22.2587706" lon="114.0022785"><ele>143.0</ele><time>2026-03-29T03:51:34.285Z</time></trkpt><trkpt lat="22.2587014" lon="114.0022479"><ele>143.0</ele><time>2026-03-29T03:51:36.284Z</time></trkpt><trkpt lat="22.2586654" lon="114.0021589"><ele>143.0</ele><time>2026-03-29T03:51:38.284Z</time></trkpt><trkpt lat="22.258685" lon="114.0020653"><ele>143.0</ele><time>2026-03-29T03:51:40.284Z</time></trkpt><trkpt lat="22.25878" lon="114.0019965"><ele>143.0</ele><time>2026-03-29T03:51:42.285Z</time></trkpt><trkpt lat="22.2588706" lon="114.0020051"><ele>143.0</ele><time>2026-03-29T03:51:44.285Z</time></trkpt><trkpt lat="22.2589331" lon="114.0020637"><ele>143.0</ele><time>2026-03-29T03:51:46.286Z</time></trkpt><trkpt lat="22.2589809" lon="114.0021362"><ele>143.0</ele><time>2026-03-29T03:51:48.285Z</time></trkpt><trkpt lat="22.2589643" lon="114.0022043"><ele>143.0</ele><time>2026-03-29T03:51:50.286Z</time></trkpt><trkpt lat="22.2589137" lon="114.0022668"><ele>143.0</ele><time>2026-03-29T03:51:52.286Z</time></trkpt><trkpt lat="22.2588384" lon="114.0022991"><ele>143.0</ele><time>2026-03-29T03:51:54.286Z</time></trkpt><trkpt lat="22.2587577" lon="114.0022912"><ele>143.0</ele><time>2026-03-29T03:51:56.286Z</time></trkpt><trkpt lat="22.2586921" lon="114.0022356"><ele>143.0</ele><time>2026-03-29T03:51:58.286Z</time></trkpt><trkpt lat="22.2586742" lon="114.0021221"><ele>143.0</ele><time>2026-03-29T03:52:00.286Z</time></trkpt><trkpt lat="22.2587219" lon="114.0020363"><ele>143.0</ele><time>2026-03-29T03:52:02.286Z</time></trkpt><trkpt lat="22.2588249" lon="114.001993"><ele>142.99999999999997</ele><time>2026-03-29T03:52:04.286Z</time></trkpt><trkpt lat="22.2589036" lon="114.0019938"><ele>143.0</ele><time>2026-03-29T03:52:07.285Z</time></trkpt><trkpt lat="22.2589796" lon="114.0019759"><ele>143.0</ele><time>2026-03-29T03:52:10.285Z</time></trkpt><trkpt lat="22.2590582" lon="114.0019329"><ele>143.0</ele><time>2026-03-29T03:52:13.285Z</time></trkpt><trkpt lat="22.2591019" lon="114.0018829"><ele>143.0</ele><time>2026-03-29T03:52:15.286Z</time></trkpt><trkpt lat="22.2590491" lon="114.0018358"><ele>142.99999999999997</ele><time>2026-03-29T03:52:18.286Z</time></trkpt><trkpt lat="22.2589941" lon="114.0017931"><ele>143.0</ele><time>2026-03-29T03:52:21.286Z</time></trkpt><trkpt lat="22.2589507" lon="114.001716"><ele>142.85714285714283</ele><time>2026-03-29T03:52:25.286Z</time></trkpt><trkpt lat="22.2589341" lon="114.0016442"><ele>142.71428571428572</ele><time>2026-03-29T03:52:30.285Z</time></trkpt><trkpt lat="22.258875" lon="114.0015966"><ele>142.57142857142856</ele><time>2026-03-29T03:52:34.285Z</time></trkpt><trkpt lat="22.2588633" lon="114.0015227"><ele>142.42857142857142</ele><time>2026-03-29T03:52:37.286Z</time></trkpt><trkpt lat="22.2588858" lon="114.0014458"><ele>142.28571428571428</ele><time>2026-03-29T03:52:41.286Z</time></trkpt><trkpt lat="22.2588813" lon="114.0013637"><ele>142.14285714285714</ele><time>2026-03-29T03:52:47.286Z</time></trkpt><trkpt lat="22.258886" lon="114.0012826"><ele>142.0</ele><time>2026-03-29T03:52:51.286Z</time></trkpt><trkpt lat="22.2589241" lon="114.0012221"><ele>141.0</ele><time>2026-03-29T03:52:55.287Z</time></trkpt><trkpt lat="22.2589526" lon="114.0011476"><ele>140.0</ele><time>2026-03-29T03:53:00.287Z</time></trkpt><trkpt lat="22.2589655" lon="114.0010771"><ele>139.0</ele><time>2026-03-29T03:53:05.287Z</time></trkpt><trkpt lat="22.2589703" lon="114.0009876"><ele>138.0</ele><time>2026-03-29T03:53:11.286Z</time></trkpt><trkpt lat="22.2589756" lon="114.0009178"><ele>137.0</ele><time>2026-03-29T03:53:16.286Z</time></trkpt><trkpt lat="22.2589597" lon="114.0008457"><ele>136.0</ele><time>2026-03-29T03:53:21.286Z</time></trkpt><trkpt lat="22.2589261" lon="114.0007774"><ele>135.0</ele><time>2026-03-29T03:53:26.286Z</time></trkpt><trkpt lat="22.2588977" lon="114.0007054"><ele>135.0</ele><time>2026-03-29T03:53:31.286Z</time></trkpt><trkpt lat="22.2588758" lon="114.0006272"><ele>135.0</ele><time>2026-03-29T03:53:36.288Z</time></trkpt><trkpt lat="22.2588933" lon="114.0005575"><ele>135.0</ele><time>2026-03-29T03:53:41.288Z</time></trkpt><trkpt lat="22.2588302" lon="114.0005409"><ele>135.0</ele><time>2026-03-29T03:53:50.288Z</time></trkpt><trkpt lat="22.2587722" lon="114.000512"><ele>135.0</ele><time>2026-03-29T03:53:54.287Z</time></trkpt><trkpt lat="22.2587637" lon="114.0004355"><ele>135.0</ele><time>2026-03-29T03:53:58.287Z</time></trkpt><trkpt lat="22.2587169" lon="114.0003798"><ele>135.0</ele><time>2026-03-29T03:54:05.287Z</time></trkpt><trkpt lat="22.2586707" lon="114.0003256"><ele>135.0</ele><time>2026-03-29T03:54:10.287Z</time></trkpt><trkpt lat="22.2586366" lon="114.0002583"><ele>135.0</ele><time>2026-03-29T03:54:14.287Z</time></trkpt><trkpt lat="22.2586497" lon="114.0001882"><ele>135.0</ele><time>2026-03-29T03:54:18.288Z</time></trkpt><trkpt lat="22.2586486" lon="114.0001069"><ele>135.0</ele><time>2026-03-29T03:54:21.287Z</time></trkpt><trkpt lat="22.2586334" lon="114.0000119"><ele>135.0</ele><time>2026-03-29T03:54:24.288Z</time></trkpt><trkpt lat="22.2585973" lon="113.9999511"><ele>135.0</ele><time>2026-03-29T03:54:26.288Z</time></trkpt><trkpt lat="22.2585371" lon="113.9999257"><ele>135.0</ele><time>2026-03-29T03:54:28.287Z</time></trkpt><trkpt lat="22.258479" lon="113.9998982"><ele>135.0</ele><time>2026-03-29T03:54:36.288Z</time></trkpt><trkpt lat="22.2584339" lon="113.9998475"><ele>135.0</ele><time>2026-03-29T03:55:01.289Z</time></trkpt><trkpt lat="22.2585076" lon="113.9998662"><ele>135.0</ele><time>2026-03-29T03:56:02.29Z</time></trkpt><trkpt lat="22.2584403" lon="113.9998652"><ele>135.0</ele><time>2026-03-29T03:56:15.289Z</time></trkpt><trkpt lat="22.2585045" lon="113.9998627"><ele>135.0</ele><time>2026-03-29T03:56:28.29Z</time></trkpt><trkpt lat="22.258532" lon="113.9999311"><ele>135.0</ele><time>2026-03-29T03:56:50.29Z</time></trkpt><trkpt lat="22.2584785" lon="113.9998839"><ele>135.0</ele><time>2026-03-29T04:01:37.294Z</time></trkpt><trkpt lat="22.2585246" lon="113.9999369"><ele>135.0</ele><time>2026-03-29T04:05:34.337Z</time></trkpt><trkpt lat="22.2585448" lon="114.0000187"><ele>135.0</ele><time>2026-03-29T04:05:36.298Z</time></trkpt><trkpt lat="22.2584701" lon="114.0000805"><ele>135.0</ele><time>2026-03-29T04:05:51.298Z</time></trkpt><trkpt lat="22.2583957" lon="114.0001508"><ele>135.0</ele><time>2026-03-29T04:06:08.298Z</time></trkpt><trkpt lat="22.258355" lon="114.0002332"><ele>135.0</ele><time>2026-03-29T04:06:10.298Z</time></trkpt><trkpt lat="22.2583121" lon="114.0003084"><ele>135.0</ele><time>2026-03-29T04:06:12.298Z</time></trkpt><trkpt lat="22.2582712" lon="114.000376"><ele>135.0</ele><time>2026-03-29T04:06:15.298Z</time></trkpt><trkpt lat="22.2582367" lon="114.0004365"><ele>135.0</ele><time>2026-03-29T04:06:21.298Z</time></trkpt><trkpt lat="22.2582807" lon="114.0004909"><ele>135.0</ele><time>2026-03-29T04:06:31.299Z</time></trkpt><trkpt lat="22.2582764" lon="114.0005662"><ele>135.0</ele><time>2026-03-29T04:06:37.299Z</time></trkpt><trkpt lat="22.2582081" lon="114.0006102"><ele>135.0</ele><time>2026-03-29T04:06:41.299Z</time></trkpt><trkpt lat="22.2581413" lon="114.0006345"><ele>135.0</ele><time>2026-03-29T04:06:45.299Z</time></trkpt><trkpt lat="22.2580959" lon="114.0006985"><ele>135.0</ele><time>2026-03-29T04:06:49.298Z</time></trkpt><trkpt lat="22.2581213" lon="114.0007685"><ele>135.0</ele><time>2026-03-29T04:06:54.298Z</time></trkpt><trkpt lat="22.2581916" lon="114.0007746"><ele>135.0</ele><time>2026-03-29T04:06:58.299Z</time></trkpt><trkpt lat="22.258258" lon="114.0008023"><ele>135.0</ele><time>2026-03-29T04:07:03.299Z</time></trkpt><trkpt lat="22.2582588" lon="114.0008761"><ele>135.0</ele><time>2026-03-29T04:07:06.299Z</time></trkpt><trkpt lat="22.2582269" lon="114.0009401"><ele>135.0</ele><time>2026-03-29T04:07:09.299Z</time></trkpt><trkpt lat="22.2582016" lon="114.0010097"><ele>135.0</ele><time>2026-03-29T04:07:13.299Z</time></trkpt><trkpt lat="22.2581643" lon="114.0010757"><ele>135.0</ele><time>2026-03-29T04:07:26.299Z</time></trkpt><trkpt lat="22.2581058" lon="114.00111"><ele>136.28571428571428</ele><time>2026-03-29T04:07:28.299Z</time></trkpt><trkpt lat="22.2580426" lon="114.0011432"><ele>137.57142857142856</ele><time>2026-03-29T04:07:30.299Z</time></trkpt><trkpt lat="22.2579753" lon="114.0011666"><ele>138.85714285714286</ele><time>2026-03-29T04:07:33.299Z</time></trkpt><trkpt lat="22.2579051" lon="114.0011925"><ele>140.14285714285714</ele><time>2026-03-29T04:07:36.298Z</time></trkpt><trkpt lat="22.2579193" lon="114.001271"><ele>141.42857142857144</ele><time>2026-03-29T04:07:40.299Z</time></trkpt><trkpt lat="22.2578796" lon="114.0013432"><ele>142.71428571428572</ele><time>2026-03-29T04:07:44.3Z</time></trkpt><trkpt lat="22.2578079" lon="114.0013728"><ele>144.0</ele><time>2026-03-29T04:07:47.3Z</time></trkpt><trkpt lat="22.2577865" lon="114.0014458"><ele>144.0</ele><time>2026-03-29T04:07:52.3Z</time></trkpt><trkpt lat="22.2577926" lon="114.0015166"><ele>144.0</ele><time>2026-03-29T04:07:59.3Z</time></trkpt><trkpt lat="22.257797" lon="114.0015924"><ele>144.0</ele><time>2026-03-29T04:08:01.3Z</time></trkpt><trkpt lat="22.2577882" lon="114.0017007"><ele>144.0</ele><time>2026-03-29T04:08:03.299Z</time></trkpt><trkpt lat="22.2577786" lon="114.001801"><ele>144.0</ele><time>2026-03-29T04:08:05.299Z</time></trkpt><trkpt lat="22.2578445" lon="114.0017383"><ele>144.0</ele><time>2026-03-29T04:11:39.303Z</time></trkpt><trkpt lat="22.2579017" lon="114.0016731"><ele>144.0</ele><time>2026-03-29T04:11:41.303Z</time></trkpt><trkpt lat="22.2579598" lon="114.0016273"><ele>144.0</ele><time>2026-03-29T04:11:43.303Z</time></trkpt><trkpt lat="22.2580167" lon="114.0015296"><ele>144.0</ele><time>2026-03-29T04:11:46.303Z</time></trkpt><trkpt lat="22.2580447" lon="114.0014575"><ele>144.0</ele><time>2026-03-29T04:11:48.302Z</time></trkpt><trkpt lat="22.2580876" lon="114.001371"><ele>144.0</ele><time>2026-03-29T04:11:50.302Z</time></trkpt><trkpt lat="22.2581124" lon="114.0012955"><ele>144.0</ele><time>2026-03-29T04:11:52.302Z</time></trkpt><trkpt lat="22.2581311" lon="114.0012112"><ele>144.0</ele><time>2026-03-29T04:11:54.303Z</time></trkpt><trkpt lat="22.258165" lon="114.0011253"><ele>144.0</ele><time>2026-03-29T04:11:56.303Z</time></trkpt><trkpt lat="22.2580984" lon="114.0010865"><ele>144.0</ele><time>2026-03-29T04:12:01.302Z</time></trkpt><trkpt lat="22.2580312" lon="114.0011473"><ele>144.0</ele><time>2026-03-29T04:12:41.304Z</time></trkpt><trkpt lat="22.2579565" lon="114.0011756"><ele>144.0</ele><time>2026-03-29T04:12:43.303Z</time></trkpt><trkpt lat="22.2579374" lon="114.0012498"><ele>144.0</ele><time>2026-03-29T04:12:47.304Z</time></trkpt><trkpt lat="22.2578984" lon="114.0013424"><ele>144.0</ele><time>2026-03-29T04:12:50.303Z</time></trkpt><trkpt lat="22.2578396" lon="114.0013809"><ele>144.0</ele><time>2026-03-29T04:12:52.304Z</time></trkpt><trkpt lat="22.2577903" lon="114.0014466"><ele>144.0</ele><time>2026-03-29T04:12:56.304Z</time></trkpt><trkpt lat="22.2578031" lon="114.0015222"><ele>144.0</ele><time>2026-03-29T04:13:00.304Z</time></trkpt><trkpt lat="22.2578055" lon="114.0016022"><ele>144.0</ele><time>2026-03-29T04:13:02.304Z</time></trkpt><trkpt lat="22.2578072" lon="114.0017041"><ele>144.0</ele><time>2026-03-29T04:13:04.304Z</time></trkpt><trkpt lat="22.2577979" lon="114.0017971"><ele>144.0</ele><time>2026-03-29T04:13:06.304Z</time></trkpt><trkpt lat="22.257859" lon="114.0017366"><ele>144.0</ele><time>2026-03-29T04:13:40.439Z</time></trkpt><trkpt lat="22.2578869" lon="114.0016642"><ele>144.0</ele><time>2026-03-29T04:13:43.362Z</time></trkpt><trkpt lat="22.2579189" lon="114.0015759"><ele>144.0</ele><time>2026-03-29T04:13:46.376Z</time></trkpt><trkpt lat="22.2579477" lon="114.0014857"><ele>144.0</ele><time>2026-03-29T04:13:48.478Z</time></trkpt><trkpt lat="22.2579598" lon="114.0014006"><ele>144.0</ele><time>2026-03-29T04:13:50.445Z</time></trkpt><trkpt lat="22.2579656" lon="114.0013178"><ele>144.0</ele><time>2026-03-29T04:13:52.398Z</time></trkpt><trkpt lat="22.2581265" lon="114.001157"><ele>144.0</ele><time>2026-03-29T04:13:53.304Z</time></trkpt><trkpt lat="22.2581936" lon="114.0010845"><ele>144.0</ele><time>2026-03-29T04:13:54.304Z</time></trkpt><trkpt lat="22.2581145" lon="114.0011109"><ele>144.0</ele><time>2026-03-29T04:13:59.305Z</time></trkpt><trkpt lat="22.2580411" lon="114.0011457"><ele>144.0</ele><time>2026-03-29T04:14:00.304Z</time></trkpt><trkpt lat="22.2579769" lon="114.0011648"><ele>144.0</ele><time>2026-03-29T04:14:01.305Z</time></trkpt><trkpt lat="22.2579028" lon="114.0012086"><ele>144.0</ele><time>2026-03-29T04:14:03.305Z</time></trkpt><trkpt lat="22.2578812" lon="114.0013087"><ele>144.0</ele><time>2026-03-29T04:14:06.305Z</time></trkpt><trkpt lat="22.2578166" lon="114.0013631"><ele>144.0</ele><time>2026-03-29T04:14:09.305Z</time></trkpt><trkpt lat="22.2577736" lon="114.0014364"><ele>144.0</ele><time>2026-03-29T04:14:14.305Z</time></trkpt><trkpt lat="22.2578048" lon="114.0015099"><ele>144.0</ele><time>2026-03-29T04:14:18.304Z</time></trkpt><trkpt lat="22.2578046" lon="114.0015939"><ele>144.0</ele><time>2026-03-29T04:14:21.305Z</time></trkpt><trkpt lat="22.2577965" lon="114.0016972"><ele>144.0</ele><time>2026-03-29T04:14:23.305Z</time></trkpt><trkpt lat="22.2577709" lon="114.0017906"><ele>144.0</ele><time>2026-03-29T04:14:25.305Z</time></trkpt><trkpt lat="22.2577722" lon="114.0018685"><ele>144.0</ele><time>2026-03-29T04:14:29.305Z</time></trkpt><trkpt lat="22.2578133" lon="114.0018149"><ele>144.0</ele><time>2026-03-29T04:14:33.305Z</time></trkpt><trkpt lat="22.2578479" lon="114.0017281"><ele>144.0</ele><time>2026-03-29T04:14:35.305Z</time></trkpt><trkpt lat="22.257884" lon="114.0016229"><ele>144.0</ele><time>2026-03-29T04:14:37.305Z</time></trkpt><trkpt lat="22.2579198" lon="114.001549"><ele>144.0</ele><time>2026-03-29T04:14:39.305Z</time></trkpt><trkpt lat="22.2579661" lon="114.0014676"><ele>144.0</ele><time>2026-03-29T04:14:41.305Z</time></trkpt><trkpt lat="22.2580121" lon="114.001388"><ele>144.0</ele><time>2026-03-29T04:14:43.305Z</time></trkpt><trkpt lat="22.2580611" lon="114.0013068"><ele>144.0</ele><time>2026-03-29T04:14:45.305Z</time></trkpt><trkpt lat="22.258095" lon="114.001223"><ele>144.0</ele><time>2026-03-29T04:14:47.305Z</time></trkpt><trkpt lat="22.2581444" lon="114.0011391"><ele>144.0</ele><time>2026-03-29T04:14:49.305Z</time></trkpt><trkpt lat="22.2582195" lon="114.0010551"><ele>144.0</ele><time>2026-03-29T04:14:51.306Z</time></trkpt><trkpt lat="22.2581572" lon="114.0010691"><ele>144.0</ele><time>2026-03-29T04:14:55.306Z</time></trkpt><trkpt lat="22.2580718" lon="114.0011076"><ele>144.0</ele><time>2026-03-29T04:14:57.306Z</time></trkpt><trkpt lat="22.2579564" lon="114.0011281"><ele>144.00000000000003</ele><time>2026-03-29T04:14:59.306Z</time></trkpt><trkpt lat="22.257897" lon="114.0011753"><ele>144.0</ele><time>2026-03-29T04:15:01.306Z</time></trkpt><trkpt lat="22.257901" lon="114.0012564"><ele>144.0</ele><time>2026-03-29T04:15:03.306Z</time></trkpt><trkpt lat="22.2578915" lon="114.0013378"><ele>144.0</ele><time>2026-03-29T04:15:06.306Z</time></trkpt><trkpt lat="22.2578221" lon="114.0013678"><ele>144.0</ele><time>2026-03-29T04:15:09.305Z</time></trkpt><trkpt lat="22.2577906" lon="114.0014274"><ele>144.00000000000003</ele><time>2026-03-29T04:15:13.306Z</time></trkpt><trkpt lat="22.2577921" lon="114.001512"><ele>144.0</ele><time>2026-03-29T04:15:19.305Z</time></trkpt><trkpt lat="22.2578007" lon="114.0016141"><ele>144.0</ele><time>2026-03-29T04:15:24.306Z</time></trkpt><trkpt lat="22.2577947" lon="114.0017185"><ele>144.0</ele><time>2026-03-29T04:15:26.306Z</time></trkpt><trkpt lat="22.2577693" lon="114.0017917"><ele>144.0</ele><time>2026-03-29T04:15:28.306Z</time></trkpt><trkpt lat="22.2577639" lon="114.0018611"><ele>144.0</ele><time>2026-03-29T04:15:31.306Z</time></trkpt><trkpt lat="22.2578079" lon="114.0018067"><ele>144.0</ele><time>2026-03-29T04:15:35.305Z</time></trkpt><trkpt lat="22.2578399" lon="114.0017076"><ele>144.0</ele><time>2026-03-29T04:15:38.306Z</time></trkpt><trkpt lat="22.2578334" lon="114.0015873"><ele>144.0</ele><time>2026-03-29T04:15:40.306Z</time></trkpt><trkpt lat="22.2578213" lon="114.0015012"><ele>144.0</ele><time>2026-03-29T04:15:42.306Z</time></trkpt><trkpt lat="22.2578473" lon="114.0014237"><ele>144.0</ele><time>2026-03-29T04:15:44.306Z</time></trkpt><trkpt lat="22.2579024" lon="114.0013295"><ele>144.0</ele><time>2026-03-29T04:15:46.306Z</time></trkpt><trkpt lat="22.2579535" lon="114.0012622"><ele>144.0</ele><time>2026-03-29T04:15:48.306Z</time></trkpt><trkpt lat="22.2580135" lon="114.0011714"><ele>144.0</ele><time>2026-03-29T04:15:50.306Z</time></trkpt><trkpt lat="22.2580594" lon="114.0011247"><ele>144.00000000000003</ele><time>2026-03-29T04:15:51.306Z</time></trkpt><trkpt lat="22.2581171" lon="114.0010908"><ele>144.0</ele><time>2026-03-29T04:15:52.305Z</time></trkpt><trkpt lat="22.2581781" lon="114.0010728"><ele>144.0</ele><time>2026-03-29T04:15:53.306Z</time></trkpt><trkpt lat="22.2581059" lon="114.0010812"><ele>144.0</ele><time>2026-03-29T04:15:58.306Z</time></trkpt><trkpt lat="22.2580411" lon="114.0011138"><ele>144.0</ele><time>2026-03-29T04:15:59.305Z</time></trkpt><trkpt lat="22.2579826" lon="114.0011487"><ele>144.00000000000003</ele><time>2026-03-29T04:16:00.306Z</time></trkpt><trkpt lat="22.2579243" lon="114.0012046"><ele>144.0</ele><time>2026-03-29T04:16:03.425Z</time></trkpt><trkpt lat="22.2579394" lon="114.0012888"><ele>144.0</ele><time>2026-03-29T04:16:08.425Z</time></trkpt><trkpt lat="22.2578746" lon="114.0013444"><ele>144.0</ele><time>2026-03-29T04:16:11.446Z</time></trkpt><trkpt lat="22.2578124" lon="114.0014115"><ele>144.0</ele><time>2026-03-29T04:16:15.327Z</time></trkpt><trkpt lat="22.2577902" lon="114.0014843"><ele>144.0</ele><time>2026-03-29T04:16:19.447Z</time></trkpt><trkpt lat="22.2577954" lon="114.0015742"><ele>144.0</ele><time>2026-03-29T04:16:23.306Z</time></trkpt><trkpt lat="22.2577951" lon="114.0016638"><ele>144.0</ele><time>2026-03-29T04:16:25.307Z</time></trkpt><trkpt lat="22.2577824" lon="114.0017537"><ele>144.0</ele><time>2026-03-29T04:16:27.307Z</time></trkpt><trkpt lat="22.2577588" lon="114.001825"><ele>144.0</ele><time>2026-03-29T04:16:29.307Z</time></trkpt><trkpt lat="22.2578138" lon="114.0017912"><ele>144.0</ele><time>2026-03-29T04:16:37.307Z</time></trkpt><trkpt lat="22.2578179" lon="114.0016725"><ele>144.0</ele><time>2026-03-29T04:16:39.306Z</time></trkpt><trkpt lat="22.2578011" lon="114.0015694"><ele>144.0</ele><time>2026-03-29T04:16:41.306Z</time></trkpt><trkpt lat="22.2578205" lon="114.0014673"><ele>144.0</ele><time>2026-03-29T04:16:43.306Z</time></trkpt><trkpt lat="22.2578801" lon="114.0013514"><ele>144.0</ele><time>2026-03-29T04:16:45.306Z</time></trkpt><trkpt lat="22.2579468" lon="114.0012497"><ele>144.0</ele><time>2026-03-29T04:16:47.309Z</time></trkpt><trkpt lat="22.2580252" lon="114.0011585"><ele>144.0</ele><time>2026-03-29T04:16:49.307Z</time></trkpt><trkpt lat="22.2580914" lon="114.0011109"><ele>144.0</ele><time>2026-03-29T04:16:50.306Z</time></trkpt><trkpt lat="22.2581661" lon="114.0010862"><ele>144.0</ele><time>2026-03-29T04:16:51.308Z</time></trkpt><trkpt lat="22.258255" lon="114.0010651"><ele>144.0</ele><time>2026-03-29T04:16:53.307Z</time></trkpt><trkpt lat="22.2581624" lon="114.0010793"><ele>144.0</ele><time>2026-03-29T04:16:57.307Z</time></trkpt><trkpt lat="22.2580973" lon="114.0010944"><ele>144.0</ele><time>2026-03-29T04:16:58.308Z</time></trkpt><trkpt lat="22.2580289" lon="114.0011119"><ele>144.0</ele><time>2026-03-29T04:16:59.307Z</time></trkpt><trkpt lat="22.2579304" lon="114.0011561"><ele>144.0</ele><time>2026-03-29T04:17:01.306Z</time></trkpt><trkpt lat="22.2579027" lon="114.0012317"><ele>144.0</ele><time>2026-03-29T04:17:03.307Z</time></trkpt><trkpt lat="22.2578942" lon="114.001316"><ele>144.0</ele><time>2026-03-29T04:17:06.307Z</time></trkpt><trkpt lat="22.2578226" lon="114.0013697"><ele>144.0</ele><time>2026-03-29T04:17:10.307Z</time></trkpt><trkpt lat="22.2577898" lon="114.0014282"><ele>144.0</ele><time>2026-03-29T04:17:14.308Z</time></trkpt><trkpt lat="22.2577918" lon="114.0015021"><ele>144.0</ele><time>2026-03-29T04:17:20.308Z</time></trkpt><trkpt lat="22.2577879" lon="114.0016088"><ele>144.0</ele><time>2026-03-29T04:17:24.308Z</time></trkpt><trkpt lat="22.257798" lon="114.0017202"><ele>144.0</ele><time>2026-03-29T04:17:26.308Z</time></trkpt><trkpt lat="22.2577744" lon="114.0018028"><ele>146.14285714285717</ele><time>2026-03-29T04:17:28.307Z</time></trkpt><trkpt lat="22.2577546" lon="114.0018753"><ele>148.28571428571428</ele><time>2026-03-29T04:17:31.307Z</time></trkpt><trkpt lat="22.2578243" lon="114.0018729"><ele>150.42857142857144</ele><time>2026-03-29T04:17:37.307Z</time></trkpt><trkpt lat="22.2578891" lon="114.0018494"><ele>152.57142857142858</ele><time>2026-03-29T04:18:03.307Z</time></trkpt><trkpt lat="22.2579623" lon="114.0018666"><ele>154.71428571428572</ele><time>2026-03-29T04:18:10.308Z</time></trkpt><trkpt lat="22.2578969" lon="114.0018712"><ele>156.85714285714286</ele><time>2026-03-29T04:18:25.309Z</time></trkpt><trkpt lat="22.2578566" lon="114.001925"><ele>159.0</ele><time>2026-03-29T04:18:34.309Z</time></trkpt><trkpt lat="22.2578019" lon="114.0018908"><ele>159.0</ele><time>2026-03-29T04:41:16.423Z</time></trkpt><trkpt lat="22.2578035" lon="114.0017977"><ele>159.0</ele><time>2026-03-29T04:41:27.343Z</time></trkpt><trkpt lat="22.2578232" lon="114.0017243"><ele>159.0</ele><time>2026-03-29T04:41:29.328Z</time></trkpt><trkpt lat="22.2578331" lon="114.0016564"><ele>159.0</ele><time>2026-03-29T04:41:31.411Z</time></trkpt><trkpt lat="22.2577961" lon="114.0017133"><ele>159.0</ele><time>2026-03-29T04:41:40.328Z</time></trkpt><trkpt lat="22.2577763" lon="114.0017978"><ele>159.0</ele><time>2026-03-29T04:41:44.329Z</time></trkpt><trkpt lat="22.2577673" lon="114.0018659"><ele>159.0</ele><time>2026-03-29T04:41:47.329Z</time></trkpt><trkpt lat="22.2577609" lon="114.0019791"><ele>159.0</ele><time>2026-03-29T04:41:55.329Z</time></trkpt><trkpt lat="22.2577686" lon="114.0021052"><ele>159.0</ele><time>2026-03-29T04:41:57.328Z</time></trkpt><trkpt lat="22.257787" lon="114.0022143"><ele>159.0</ele><time>2026-03-29T04:41:59.329Z</time></trkpt><trkpt lat="22.2578254" lon="114.0023149"><ele>159.0</ele><time>2026-03-29T04:42:01.329Z</time></trkpt><trkpt lat="22.2578527" lon="114.002378"><ele>159.0</ele><time>2026-03-29T04:42:03.328Z</time></trkpt><trkpt lat="22.2578802" lon="114.0024438"><ele>157.66666666666666</ele><time>2026-03-29T04:42:05.329Z</time></trkpt><trkpt lat="22.2579194" lon="114.0025313"><ele>156.33333333333334</ele><time>2026-03-29T04:42:07.328Z</time></trkpt><trkpt lat="22.2579601" lon="114.0026099"><ele>155.0</ele><time>2026-03-29T04:42:09.328Z</time></trkpt><trkpt lat="22.2580126" lon="114.0026786"><ele>153.66666666666669</ele><time>2026-03-29T04:42:11.329Z</time></trkpt><trkpt lat="22.2580939" lon="114.002677"><ele>152.33333333333334</ele><time>2026-03-29T04:42:13.329Z</time></trkpt><trkpt lat="22.2581542" lon="114.0026275"><ele>151.0</ele><time>2026-03-29T04:42:15.329Z</time></trkpt><trkpt lat="22.2581782" lon="114.0025396"><ele>149.4</ele><time>2026-03-29T04:42:17.328Z</time></trkpt><trkpt lat="22.258142" lon="114.0024402"><ele>147.8</ele><time>2026-03-29T04:42:19.33Z</time></trkpt><trkpt lat="22.2580753" lon="114.0023444"><ele>146.20000000000002</ele><time>2026-03-29T04:42:21.328Z</time></trkpt><trkpt lat="22.2580192" lon="114.0022546"><ele>144.6</ele><time>2026-03-29T04:42:23.329Z</time></trkpt><trkpt lat="22.2579707" lon="114.0021586"><ele>143.0</ele><time>2026-03-29T04:42:25.329Z</time></trkpt><trkpt lat="22.2579255" lon="114.002104"><ele>143.0</ele><time>2026-03-29T04:42:27.329Z</time></trkpt><trkpt lat="22.2578995" lon="114.0020388"><ele>143.0</ele><time>2026-03-29T04:42:30.329Z</time></trkpt><trkpt lat="22.2579489" lon="114.0021129"><ele>143.0</ele><time>2026-03-29T04:42:33.329Z</time></trkpt><trkpt lat="22.2580001" lon="114.0021647"><ele>143.0</ele><time>2026-03-29T04:42:35.33Z</time></trkpt><trkpt lat="22.2581857" lon="114.002322"><ele>143.0</ele><time>2026-03-29T04:42:37.33Z</time></trkpt><trkpt lat="22.2582546" lon="114.002376"><ele>143.0</ele><time>2026-03-29T04:42:39.33Z</time></trkpt><trkpt lat="22.2583223" lon="114.002466"><ele>143.0</ele><time>2026-03-29T04:42:41.33Z</time></trkpt><trkpt lat="22.2583684" lon="114.0025693"><ele>143.0</ele><time>2026-03-29T04:42:43.329Z</time></trkpt><trkpt lat="22.258409" lon="114.0026841"><ele>143.0</ele><time>2026-03-29T04:42:46.33Z</time></trkpt><trkpt lat="22.2583973" lon="114.0027572"><ele>142.6</ele><time>2026-03-29T04:42:50.329Z</time></trkpt><trkpt lat="22.2583444" lon="114.0028209"><ele>142.20000000000002</ele><time>2026-03-29T04:42:53.329Z</time></trkpt><trkpt lat="22.2581637" lon="114.0028882"><ele>141.8</ele><time>2026-03-29T04:42:56.33Z</time></trkpt><trkpt lat="22.2580873" lon="114.0029168"><ele>141.4</ele><time>2026-03-29T04:42:58.33Z</time></trkpt><trkpt lat="22.2580285" lon="114.002947"><ele>141.0</ele><time>2026-03-29T04:43:00.33Z</time></trkpt><trkpt lat="22.2579713" lon="114.0029958"><ele>141.0</ele><time>2026-03-29T04:43:02.329Z</time></trkpt><trkpt lat="22.2580391" lon="114.0029088"><ele>141.0</ele><time>2026-03-29T04:43:07.329Z</time></trkpt><trkpt lat="22.2581318" lon="114.0028683"><ele>141.0</ele><time>2026-03-29T04:43:09.329Z</time></trkpt><trkpt lat="22.258213" lon="114.0028039"><ele>141.0</ele><time>2026-03-29T04:43:11.329Z</time></trkpt><trkpt lat="22.2583019" lon="114.0027617"><ele>141.0</ele><time>2026-03-29T04:43:13.33Z</time></trkpt><trkpt lat="22.2583753" lon="114.0027601"><ele>141.0</ele><time>2026-03-29T04:43:15.33Z</time></trkpt><trkpt lat="22.2584375" lon="114.0026479"><ele>141.0</ele><time>2026-03-29T04:43:17.331Z</time></trkpt><trkpt lat="22.2584913" lon="114.0025203"><ele>141.0</ele><time>2026-03-29T04:43:19.329Z</time></trkpt><trkpt lat="22.2585065" lon="114.0023856"><ele>141.0</ele><time>2026-03-29T04:43:21.33Z</time></trkpt><trkpt lat="22.2585014" lon="114.0023081"><ele>141.0</ele><time>2026-03-29T04:43:22.33Z</time></trkpt><trkpt lat="22.2584886" lon="114.0022275"><ele>141.0</ele><time>2026-03-29T04:43:23.33Z</time></trkpt><trkpt lat="22.2584639" lon="114.0021388"><ele>141.0</ele><time>2026-03-29T04:43:25.331Z</time></trkpt><trkpt lat="22.2585124" lon="114.0022387"><ele>141.0</ele><time>2026-03-29T04:43:30.331Z</time></trkpt><trkpt lat="22.25856" lon="114.0023615"><ele>141.0</ele><time>2026-03-29T04:43:32.331Z</time></trkpt><trkpt lat="22.2586006" lon="114.0024917"><ele>141.0</ele><time>2026-03-29T04:43:34.331Z</time></trkpt><trkpt lat="22.2586211" lon="114.0025606"><ele>141.0</ele><time>2026-03-29T04:43:35.33Z</time></trkpt><trkpt lat="22.2586528" lon="114.0026226"><ele>141.0</ele><time>2026-03-29T04:43:36.331Z</time></trkpt><trkpt lat="22.2587197" lon="114.0027368"><ele>141.0</ele><time>2026-03-29T04:43:38.331Z</time></trkpt><trkpt lat="22.2587852" lon="114.0028418"><ele>141.0</ele><time>2026-03-29T04:43:40.33Z</time></trkpt><trkpt lat="22.2588358" lon="114.0029222"><ele>141.0</ele><time>2026-03-29T04:43:42.33Z</time></trkpt><trkpt lat="22.258822" lon="114.0030006"><ele>141.0</ele><time>2026-03-29T04:43:44.331Z</time></trkpt><trkpt lat="22.2587594" lon="114.0030589"><ele>141.0</ele><time>2026-03-29T04:43:46.33Z</time></trkpt><trkpt lat="22.2587041" lon="114.0030917"><ele>141.0</ele><time>2026-03-29T04:43:47.331Z</time></trkpt><trkpt lat="22.2586377" lon="114.0031222"><ele>141.0</ele><time>2026-03-29T04:43:48.33Z</time></trkpt><trkpt lat="22.258531" lon="114.0031679"><ele>141.0</ele><time>2026-03-29T04:43:50.33Z</time></trkpt><trkpt lat="22.258455" lon="114.0031892"><ele>141.0</ele><time>2026-03-29T04:43:52.33Z</time></trkpt><trkpt lat="22.2583838" lon="114.0032382"><ele>141.0</ele><time>2026-03-29T04:43:55.331Z</time></trkpt><trkpt lat="22.2583164" lon="114.0032763"><ele>141.0</ele><time>2026-03-29T04:43:57.331Z</time></trkpt><trkpt lat="22.2582494" lon="114.0033317"><ele>141.0</ele><time>2026-03-29T04:43:59.331Z</time></trkpt><trkpt lat="22.2583441" lon="114.0033624"><ele>141.0</ele><time>2026-03-29T04:44:04.331Z</time></trkpt><trkpt lat="22.2584111" lon="114.0033469"><ele>141.0</ele><time>2026-03-29T04:44:05.33Z</time></trkpt><trkpt lat="22.2584829" lon="114.0033146"><ele>141.0</ele><time>2026-03-29T04:44:06.331Z</time></trkpt><trkpt lat="22.2585416" lon="114.003285"><ele>141.0</ele><time>2026-03-29T04:44:07.331Z</time></trkpt><trkpt lat="22.2586015" lon="114.0032413"><ele>141.0</ele><time>2026-03-29T04:44:09.331Z</time></trkpt><trkpt lat="22.2586828" lon="114.0032625"><ele>141.0</ele><time>2026-03-29T04:44:12.331Z</time></trkpt><trkpt lat="22.2587957" lon="114.0033426"><ele>141.0</ele><time>2026-03-29T04:44:13.331Z</time></trkpt><trkpt lat="22.2588493" lon="114.0034475"><ele>141.0</ele><time>2026-03-29T04:44:16.33Z</time></trkpt><trkpt lat="22.2589082" lon="114.0034835"><ele>135.8</ele><time>2026-03-29T04:44:18.331Z</time></trkpt><trkpt lat="22.2590013" lon="114.0035639"><ele>130.6</ele><time>2026-03-29T04:44:20.33Z</time></trkpt><trkpt lat="22.2591092" lon="114.0036159"><ele>125.4</ele><time>2026-03-29T04:44:22.331Z</time></trkpt><trkpt lat="22.2592057" lon="114.0036703"><ele>120.2</ele><time>2026-03-29T04:44:24.33Z</time></trkpt><trkpt lat="22.2592728" lon="114.0036963"><ele>115.0</ele><time>2026-03-29T04:44:26.331Z</time></trkpt><trkpt lat="22.2593121" lon="114.0036232"><ele>114.99999999999999</ele><time>2026-03-29T04:44:44.331Z</time></trkpt><trkpt lat="22.2593602" lon="114.003577"><ele>115.0</ele><time>2026-03-29T04:44:47.332Z</time></trkpt><trkpt lat="22.2594166" lon="114.0035229"><ele>114.99999999999999</ele><time>2026-03-29T04:44:50.332Z</time></trkpt><trkpt lat="22.259463" lon="114.0034429"><ele>114.99999999999999</ele><time>2026-03-29T04:44:53.331Z</time></trkpt><trkpt lat="22.2595104" lon="114.0033787"><ele>115.0</ele><time>2026-03-29T04:44:56.332Z</time></trkpt><trkpt lat="22.2595318" lon="114.0033118"><ele>114.99999999999999</ele><time>2026-03-29T04:44:59.332Z</time></trkpt><trkpt lat="22.2595766" lon="114.0032493"><ele>114.99999999999999</ele><time>2026-03-29T04:45:03.332Z</time></trkpt><trkpt lat="22.2595642" lon="114.0031807"><ele>115.00000000000001</ele><time>2026-03-29T04:45:05.331Z</time></trkpt><trkpt lat="22.2595249" lon="114.0031098"><ele>115.0</ele><time>2026-03-29T04:45:08.333Z</time></trkpt><trkpt lat="22.2594655" lon="114.0030637"><ele>115.0</ele><time>2026-03-29T04:45:12.331Z</time></trkpt><trkpt lat="22.2593912" lon="114.0030266"><ele>115.0</ele><time>2026-03-29T04:45:17.332Z</time></trkpt><trkpt lat="22.2593289" lon="114.0029961"><ele>115.00000000000001</ele><time>2026-03-29T04:45:21.333Z</time></trkpt><trkpt lat="22.2592613" lon="114.0029525"><ele>115.0</ele><time>2026-03-29T04:45:26.331Z</time></trkpt><trkpt lat="22.2591861" lon="114.0029496"><ele>114.99999999999999</ele><time>2026-03-29T04:45:31.331Z</time></trkpt><trkpt lat="22.2591073" lon="114.0029412"><ele>115.0</ele><time>2026-03-29T04:45:34.332Z</time></trkpt><trkpt lat="22.2590373" lon="114.0029261"><ele>114.99999999999999</ele><time>2026-03-29T04:45:38.332Z</time></trkpt><trkpt lat="22.2589913" lon="114.0028686"><ele>114.99999999999999</ele><time>2026-03-29T04:45:42.331Z</time></trkpt><trkpt lat="22.258958" lon="114.0028007"><ele>115.0</ele><time>2026-03-29T04:45:46.333Z</time></trkpt><trkpt lat="22.2589256" lon="114.0027275"><ele>114.99999999999999</ele><time>2026-03-29T04:45:50.333Z</time></trkpt><trkpt lat="22.2589183" lon="114.0026591"><ele>114.99999999999999</ele><time>2026-03-29T04:45:53.333Z</time></trkpt><trkpt lat="22.2588935" lon="114.0025674"><ele>115.57142857142856</ele><time>2026-03-29T04:45:58.333Z</time></trkpt><trkpt lat="22.2589016" lon="114.0024894"><ele>116.14285714285714</ele><time>2026-03-29T04:46:02.332Z</time></trkpt><trkpt lat="22.2589423" lon="114.002426"><ele>116.71428571428571</ele><time>2026-03-29T04:46:05.332Z</time></trkpt><trkpt lat="22.2589716" lon="114.0023625"><ele>117.28571428571428</ele><time>2026-03-29T04:46:08.333Z</time></trkpt><trkpt lat="22.2590288" lon="114.0023256"><ele>117.85714285714286</ele><time>2026-03-29T04:46:12.333Z</time></trkpt><trkpt lat="22.2590498" lon="114.002253"><ele>118.42857142857143</ele><time>2026-03-29T04:46:16.333Z</time></trkpt><trkpt lat="22.2591022" lon="114.0021943"><ele>119.0</ele><time>2026-03-29T04:46:20.333Z</time></trkpt><trkpt lat="22.2591317" lon="114.0021336"><ele>119.0</ele><time>2026-03-29T04:46:23.332Z</time></trkpt><trkpt lat="22.2591548" lon="114.0020522"><ele>119.0</ele><time>2026-03-29T04:46:27.333Z</time></trkpt><trkpt lat="22.2591539" lon="114.001969"><ele>119.0</ele><time>2026-03-29T04:46:31.333Z</time></trkpt><trkpt lat="22.2590814" lon="114.0019743"><ele>119.0</ele><time>2026-03-29T04:46:36.333Z</time></trkpt><trkpt lat="22.2590262" lon="114.0020118"><ele>119.0</ele><time>2026-03-29T04:46:40.333Z</time></trkpt><trkpt lat="22.258956" lon="114.0020111"><ele>119.0</ele><time>2026-03-29T04:46:45.332Z</time></trkpt><trkpt lat="22.2590097" lon="114.0020642"><ele>119.0</ele><time>2026-03-29T04:50:17.47Z</time></trkpt><trkpt lat="22.2590611" lon="114.002117"><ele>119.0</ele><time>2026-03-29T04:50:21.478Z</time></trkpt><trkpt lat="22.2589849" lon="114.0022131"><ele>119.0</ele><time>2026-03-29T04:50:23.456Z</time></trkpt><trkpt lat="22.2588971" lon="114.0022763"><ele>119.0</ele><time>2026-03-29T04:50:24.364Z</time></trkpt><trkpt lat="22.2588015" lon="114.0022645"><ele>119.0</ele><time>2026-03-29T04:50:26.479Z</time></trkpt><trkpt lat="22.258767" lon="114.002203"><ele>119.0</ele><time>2026-03-29T04:50:28.455Z</time></trkpt><trkpt lat="22.2587729" lon="114.0021176"><ele>118.99999999999999</ele><time>2026-03-29T04:50:31.479Z</time></trkpt><trkpt lat="22.2588115" lon="114.0020414"><ele>119.0</ele><time>2026-03-29T04:50:34.501Z</time></trkpt><trkpt lat="22.2588633" lon="114.0019893"><ele>119.0</ele><time>2026-03-29T04:50:37.523Z</time></trkpt><trkpt lat="22.2589397" lon="114.0019921"><ele>119.0</ele><time>2026-03-29T04:50:40.431Z</time></trkpt><trkpt lat="22.2589786" lon="114.0020751"><ele>118.99999999999999</ele><time>2026-03-29T04:50:42.532Z</time></trkpt><trkpt lat="22.258958" lon="114.0021588"><ele>119.0</ele><time>2026-03-29T04:50:44.499Z</time></trkpt><trkpt lat="22.2589148" lon="114.0022266"><ele>122.99999999999999</ele><time>2026-03-29T04:50:46.477Z</time></trkpt><trkpt lat="22.2588539" lon="114.0022835"><ele>127.0</ele><time>2026-03-29T04:50:48.453Z</time></trkpt><trkpt lat="22.25878" lon="114.0023087"><ele>131.0</ele><time>2026-03-29T04:50:50.428Z</time></trkpt><trkpt lat="22.2587138" lon="114.002233"><ele>135.0</ele><time>2026-03-29T04:50:53.452Z</time></trkpt><trkpt lat="22.258713" lon="114.0021357"><ele>139.0</ele><time>2026-03-29T04:50:55.428Z</time></trkpt><trkpt lat="22.2587698" lon="114.0020686"><ele>143.0</ele><time>2026-03-29T04:50:57.405Z</time></trkpt><trkpt lat="22.2588381" lon="114.0020419"><ele>142.99999999999997</ele><time>2026-03-29T04:50:59.498Z</time></trkpt><trkpt lat="22.2589084" lon="114.0020039"><ele>143.0</ele><time>2026-03-29T04:51:02.382Z</time></trkpt><trkpt lat="22.2589708" lon="114.0019814"><ele>143.0</ele><time>2026-03-29T04:51:05.427Z</time></trkpt><trkpt lat="22.2590374" lon="114.001967"><ele>143.0</ele><time>2026-03-29T04:51:08.449Z</time></trkpt><trkpt lat="22.2591026" lon="114.0019283"><ele>143.0</ele><time>2026-03-29T04:51:11.367Z</time></trkpt><trkpt lat="22.259111" lon="114.0018552"><ele>142.99999999999997</ele><time>2026-03-29T04:51:14.495Z</time></trkpt><trkpt lat="22.2590614" lon="114.0017944"><ele>143.0</ele><time>2026-03-29T04:51:18.442Z</time></trkpt><trkpt lat="22.2590153" lon="114.0017375"><ele>142.85714285714283</ele><time>2026-03-29T04:51:22.515Z</time></trkpt><trkpt lat="22.2589927" lon="114.0016662"><ele>142.71428571428572</ele><time>2026-03-29T04:51:26.469Z</time></trkpt><trkpt lat="22.2589646" lon="114.0016008"><ele>142.57142857142856</ele><time>2026-03-29T04:51:30.482Z</time></trkpt><trkpt lat="22.2589254" lon="114.00153"><ele>142.42857142857142</ele><time>2026-03-29T04:51:34.49Z</time></trkpt><trkpt lat="22.2589257" lon="114.001459"><ele>142.28571428571428</ele><time>2026-03-29T04:51:37.55Z</time></trkpt><trkpt lat="22.258929" lon="114.0013755"><ele>142.14285714285714</ele><time>2026-03-29T04:51:42.511Z</time></trkpt><trkpt lat="22.2589466" lon="114.0013038"><ele>142.0</ele><time>2026-03-29T04:51:47.51Z</time></trkpt><trkpt lat="22.2589747" lon="114.0012386"><ele>139.71428571428572</ele><time>2026-03-29T04:51:52.508Z</time></trkpt><trkpt lat="22.2590156" lon="114.0011807"><ele>137.42857142857142</ele><time>2026-03-29T04:51:57.508Z</time></trkpt><trkpt lat="22.2589928" lon="114.0011133"><ele>135.14285714285714</ele><time>2026-03-29T04:52:02.389Z</time></trkpt><trkpt lat="22.2590054" lon="114.0010428"><ele>132.85714285714286</ele><time>2026-03-29T04:52:07.388Z</time></trkpt><trkpt lat="22.2589833" lon="114.0009696"><ele>130.57142857142856</ele><time>2026-03-29T04:52:13.433Z</time></trkpt><trkpt lat="22.2589782" lon="114.0008902"><ele>128.28571428571428</ele><time>2026-03-29T04:52:18.431Z</time></trkpt><trkpt lat="22.2589668" lon="114.0008215"><ele>126.0</ele><time>2026-03-29T04:52:22.429Z</time></trkpt><trkpt lat="22.2589613" lon="114.0007401"><ele>127.28571428571428</ele><time>2026-03-29T04:52:27.382Z</time></trkpt><trkpt lat="22.2589449" lon="114.0006664"><ele>128.57142857142856</ele><time>2026-03-29T04:52:32.382Z</time></trkpt><trkpt lat="22.2589502" lon="114.0005867"><ele>129.85714285714286</ele><time>2026-03-29T04:52:39.368Z</time></trkpt><trkpt lat="22.2589041" lon="114.0005395"><ele>131.14285714285714</ele><time>2026-03-29T04:52:48.424Z</time></trkpt><trkpt lat="22.2588349" lon="114.0005323"><ele>132.42857142857142</ele><time>2026-03-29T04:52:53.422Z</time></trkpt><trkpt lat="22.2587949" lon="114.0004746"><ele>133.71428571428572</ele><time>2026-03-29T04:52:57.49Z</time></trkpt><trkpt lat="22.2587641" lon="114.0004072"><ele>135.0</ele><time>2026-03-29T04:53:02.468Z</time></trkpt><trkpt lat="22.2587193" lon="114.0003552"><ele>135.0</ele><time>2026-03-29T04:53:07.38Z</time></trkpt><trkpt lat="22.2586915" lon="114.0002911"><ele>135.0</ele><time>2026-03-29T04:53:12.495Z</time></trkpt><trkpt lat="22.2587015" lon="114.0002061"><ele>135.0</ele><time>2026-03-29T04:53:15.401Z</time></trkpt><trkpt lat="22.2587057" lon="114.0001324"><ele>135.0</ele><time>2026-03-29T04:53:17.494Z</time></trkpt><trkpt lat="22.2587062" lon="114.0000597"><ele>135.0</ele><time>2026-03-29T04:53:19.446Z</time></trkpt><trkpt lat="22.2587029" lon="113.9999875"><ele>135.0</ele><time>2026-03-29T04:53:21.446Z</time></trkpt><trkpt lat="22.2586594" lon="113.9999382"><ele>135.0</ele><time>2026-03-29T04:53:23.422Z</time></trkpt><trkpt lat="22.2585854" lon="113.9998842"><ele>135.0</ele><time>2026-03-29T04:53:26.355Z</time></trkpt><trkpt lat="22.2585055" lon="113.9998489"><ele>135.0</ele><time>2026-03-29T04:53:29.466Z</time></trkpt><trkpt lat="22.258439" lon="113.9998135"><ele>135.0</ele><time>2026-03-29T04:53:32.372Z</time></trkpt><trkpt lat="22.2584024" lon="113.9998741"><ele>135.0</ele><time>2026-03-29T04:53:36.442Z</time></trkpt><trkpt lat="22.2584639" lon="113.9998444"><ele>135.0</ele><time>2026-03-29T04:54:54.442Z</time></trkpt><trkpt lat="22.258516" lon="113.9998931"><ele>135.0</ele><time>2026-03-29T04:57:09.342Z</time></trkpt><trkpt lat="22.2585421" lon="113.9998307"><ele>135.0</ele><time>2026-03-29T04:59:02.344Z</time></trkpt><trkpt lat="22.2585548" lon="113.9999011"><ele>135.0</ele><time>2026-03-29T05:00:40.484Z</time></trkpt><trkpt lat="22.2586223" lon="113.9999191"><ele>135.0</ele><time>2026-03-29T05:00:43.506Z</time></trkpt><trkpt lat="22.2586778" lon="113.9999718"><ele>135.0</ele><time>2026-03-29T05:00:47.474Z</time></trkpt><trkpt lat="22.2587191" lon="114.0000388"><ele>135.0</ele><time>2026-03-29T05:00:51.527Z</time></trkpt><trkpt lat="22.2587497" lon="114.0001073"><ele>135.0</ele><time>2026-03-29T05:00:55.385Z</time></trkpt><trkpt lat="22.2587398" lon="114.0001876"><ele>135.0</ele><time>2026-03-29T05:01:00.069Z</time></trkpt><trkpt lat="22.2587109" lon="114.0002728"><ele>135.0</ele><time>2026-03-29T05:01:05.468Z</time></trkpt><trkpt lat="22.2586682" lon="114.000338"><ele>135.0</ele><time>2026-03-29T05:01:08.49Z</time></trkpt><trkpt lat="22.2586203" lon="114.0003866"><ele>135.0</ele><time>2026-03-29T05:01:12.441Z</time></trkpt><trkpt lat="22.2586069" lon="114.0004652"><ele>135.0</ele><time>2026-03-29T05:01:19.448Z</time></trkpt><trkpt lat="22.2585318" lon="114.000487"><ele>135.0</ele><time>2026-03-29T05:01:24.518Z</time></trkpt><trkpt lat="22.2584682" lon="114.0004918"><ele>135.0</ele><time>2026-03-29T05:01:28.471Z</time></trkpt><trkpt lat="22.2585086" lon="114.0005463"><ele>135.0</ele><time>2026-03-29T05:01:37.538Z</time></trkpt><trkpt lat="22.258455" lon="114.0006024"><ele>135.0</ele><time>2026-03-29T05:01:49.545Z</time></trkpt><trkpt lat="22.2584007" lon="114.0006397"><ele>135.0</ele><time>2026-03-29T05:01:53.463Z</time></trkpt><trkpt lat="22.2583484" lon="114.000678"><ele>135.0</ele><time>2026-03-29T05:01:57.531Z</time></trkpt><trkpt lat="22.2582996" lon="114.0007226"><ele>135.0</ele><time>2026-03-29T05:02:03.46Z</time></trkpt><trkpt lat="22.2582695" lon="114.00079"><ele>135.0</ele><time>2026-03-29T05:02:09.495Z</time></trkpt><trkpt lat="22.258268" lon="114.0008627"><ele>135.0</ele><time>2026-03-29T05:02:16.47Z</time></trkpt><trkpt lat="22.2582413" lon="114.0009261"><ele>135.0</ele><time>2026-03-29T05:02:24.491Z</time></trkpt><trkpt lat="22.2582374" lon="114.0010012"><ele>135.0</ele><time>2026-03-29T05:03:00.524Z</time></trkpt><trkpt lat="22.2581952" lon="114.0010681"><ele>136.0</ele><time>2026-03-29T05:03:05.523Z</time></trkpt><trkpt lat="22.2581462" lon="114.0011218"><ele>137.0</ele><time>2026-03-29T05:03:09.474Z</time></trkpt><trkpt lat="22.2580948" lon="114.001164"><ele>138.0</ele><time>2026-03-29T05:03:12.497Z</time></trkpt><trkpt lat="22.2580258" lon="114.0011891"><ele>139.0</ele><time>2026-03-29T05:03:15.519Z</time></trkpt><trkpt lat="22.2579717" lon="114.0012248"><ele>140.0</ele><time>2026-03-29T05:03:18.542Z</time></trkpt><trkpt lat="22.2579754" lon="114.0012983"><ele>141.0</ele><time>2026-03-29T05:03:23.514Z</time></trkpt><trkpt lat="22.2579188" lon="114.0013465"><ele>142.0</ele><time>2026-03-29T05:03:28.45Z</time></trkpt><trkpt lat="22.2578728" lon="114.001403"><ele>142.28571428571428</ele><time>2026-03-29T05:03:32.457Z</time></trkpt><trkpt lat="22.2578437" lon="114.0014688"><ele>142.57142857142856</ele><time>2026-03-29T05:03:36.512Z</time></trkpt><trkpt lat="22.257832" lon="114.0015414"><ele>142.85714285714286</ele><time>2026-03-29T05:03:42.427Z</time></trkpt><trkpt lat="22.2578189" lon="114.0016095"><ele>143.14285714285714</ele><time>2026-03-29T05:03:46.496Z</time></trkpt><trkpt lat="22.2577787" lon="114.001694"><ele>143.42857142857144</ele><time>2026-03-29T05:03:48.473Z</time></trkpt><trkpt lat="22.2577611" lon="114.0017698"><ele>143.71428571428572</ele><time>2026-03-29T05:03:50.449Z</time></trkpt><trkpt lat="22.2577768" lon="114.0018607"><ele>144.0</ele><time>2026-03-29T05:03:52.541Z</time></trkpt><trkpt lat="22.2578153" lon="114.0019166"><ele>146.5</ele><time>2026-03-29T05:03:56.493Z</time></trkpt><trkpt lat="22.2577595" lon="114.0018615"><ele>149.0</ele><time>2026-03-29T05:04:26.482Z</time></trkpt><trkpt lat="22.2577134" lon="114.0017885"><ele>151.5</ele><time>2026-03-29T05:04:29.504Z</time></trkpt><trkpt lat="22.2576256" lon="114.0017674"><ele>154.0</ele><time>2026-03-29T05:04:33.477Z</time></trkpt><trkpt lat="22.257568" lon="114.0017323"><ele>156.5</ele><time>2026-03-29T05:04:35.432Z</time></trkpt><trkpt lat="22.2574873" lon="114.0017323"><ele>159.0</ele><time>2026-03-29T05:04:38.455Z</time></trkpt><trkpt lat="22.2574163" lon="114.0017411"><ele>159.0</ele><time>2026-03-29T05:04:42.339Z</time></trkpt><trkpt lat="22.257352" lon="114.0017752"><ele>159.0</ele><time>2026-03-29T05:04:45.429Z</time></trkpt><trkpt lat="22.257339" lon="114.001848"><ele>159.0</ele><time>2026-03-29T05:04:48.451Z</time></trkpt><trkpt lat="22.2573467" lon="114.001932"><ele>159.0</ele><time>2026-03-29T05:04:52.403Z</time></trkpt><trkpt lat="22.2573516" lon="114.0020222"><ele>159.0</ele><time>2026-03-29T05:04:55.425Z</time></trkpt><trkpt lat="22.2573581" lon="114.0021083"><ele>159.0</ele><time>2026-03-29T05:04:58.449Z</time></trkpt><trkpt lat="22.2573012" lon="114.002163"><ele>160.42857142857142</ele><time>2026-03-29T05:05:17.35Z</time></trkpt><trkpt lat="22.257239" lon="114.0021745"><ele>161.85714285714286</ele><time>2026-03-29T05:05:19.35Z</time></trkpt><trkpt lat="22.2571666" lon="114.0022013"><ele>163.28571428571428</ele><time>2026-03-29T05:05:22.349Z</time></trkpt><trkpt lat="22.2570888" lon="114.0021938"><ele>164.71428571428572</ele><time>2026-03-29T05:05:26.35Z</time></trkpt><trkpt lat="22.2570321" lon="114.0021555"><ele>166.14285714285714</ele><time>2026-03-29T05:05:29.35Z</time></trkpt><trkpt lat="22.25699" lon="114.0021036"><ele>167.57142857142858</ele><time>2026-03-29T05:05:34.35Z</time></trkpt><trkpt lat="22.256913" lon="114.002085"><ele>169.0</ele><time>2026-03-29T05:05:39.35Z</time></trkpt><trkpt lat="22.2568456" lon="114.0021164"><ele>169.0</ele><time>2026-03-29T05:05:42.349Z</time></trkpt><trkpt lat="22.2567758" lon="114.0021256"><ele>169.0</ele><time>2026-03-29T05:05:46.349Z</time></trkpt><trkpt lat="22.2566977" lon="114.0021272"><ele>169.0</ele><time>2026-03-29T05:05:50.35Z</time></trkpt><trkpt lat="22.2566275" lon="114.0021376"><ele>169.0</ele><time>2026-03-29T05:05:54.349Z</time></trkpt><trkpt lat="22.2565613" lon="114.0021587"><ele>169.0</ele><time>2026-03-29T05:05:58.35Z</time></trkpt><trkpt lat="22.2565363" lon="114.0022357"><ele>169.0</ele><time>2026-03-29T05:06:03.35Z</time></trkpt><trkpt lat="22.256539" lon="114.0023071"><ele>169.0</ele><time>2026-03-29T05:06:07.351Z</time></trkpt><trkpt lat="22.2565505" lon="114.0023818"><ele>169.0</ele><time>2026-03-29T05:06:11.35Z</time></trkpt><trkpt lat="22.2565027" lon="114.0024487"><ele>169.0</ele><time>2026-03-29T05:06:16.351Z</time></trkpt><trkpt lat="22.2564671" lon="114.0025123"><ele>169.0</ele><time>2026-03-29T05:06:19.351Z</time></trkpt><trkpt lat="22.2564492" lon="114.0025873"><ele>169.0</ele><time>2026-03-29T05:06:23.351Z</time></trkpt><trkpt lat="22.2564194" lon="114.002648"><ele>169.0</ele><time>2026-03-29T05:06:27.351Z</time></trkpt><trkpt lat="22.2563986" lon="114.0027274"><ele>169.0</ele><time>2026-03-29T05:06:32.351Z</time></trkpt><trkpt lat="22.2563855" lon="114.0028182"><ele>169.0</ele><time>2026-03-29T05:06:36.35Z</time></trkpt><trkpt lat="22.2563622" lon="114.0029055"><ele>169.42857142857144</ele><time>2026-03-29T05:06:38.351Z</time></trkpt><trkpt lat="22.2563468" lon="114.002973"><ele>169.85714285714286</ele><time>2026-03-29T05:06:40.351Z</time></trkpt><trkpt lat="22.2563611" lon="114.0030431"><ele>170.28571428571428</ele><time>2026-03-29T05:06:45.351Z</time></trkpt><trkpt lat="22.2563585" lon="114.0031174"><ele>170.71428571428572</ele><time>2026-03-29T05:06:49.35Z</time></trkpt><trkpt lat="22.2563256" lon="114.0032002"><ele>171.14285714285714</ele><time>2026-03-29T05:06:53.351Z</time></trkpt><trkpt lat="22.2563117" lon="114.0032874"><ele>171.57142857142858</ele><time>2026-03-29T05:06:57.351Z</time></trkpt><trkpt lat="22.2562724" lon="114.0033579"><ele>172.0</ele><time>2026-03-29T05:07:01.351Z</time></trkpt><trkpt lat="22.2562328" lon="114.0034225"><ele>172.14285714285717</ele><time>2026-03-29T05:07:05.351Z</time></trkpt><trkpt lat="22.2562043" lon="114.0034946"><ele>172.28571428571428</ele><time>2026-03-29T05:07:09.351Z</time></trkpt><trkpt lat="22.2561944" lon="114.0035749"><ele>172.42857142857144</ele><time>2026-03-29T05:07:14.351Z</time></trkpt><trkpt lat="22.2561939" lon="114.0035067"><ele>172.57142857142858</ele><time>2026-03-29T05:08:40.352Z</time></trkpt><trkpt lat="22.2561587" lon="114.0035785"><ele>172.71428571428572</ele><time>2026-03-29T05:08:51.353Z</time></trkpt><trkpt lat="22.256119" lon="114.0036533"><ele>172.85714285714286</ele><time>2026-03-29T05:08:54.353Z</time></trkpt><trkpt lat="22.2560936" lon="114.003737"><ele>173.0</ele><time>2026-03-29T05:08:57.352Z</time></trkpt><trkpt lat="22.2560698" lon="114.0038171"><ele>173.0</ele><time>2026-03-29T05:09:01.353Z</time></trkpt><trkpt lat="22.2560486" lon="114.0038916"><ele>173.0</ele><time>2026-03-29T05:09:05.353Z</time></trkpt><trkpt lat="22.2560364" lon="114.0039638"><ele>173.0</ele><time>2026-03-29T05:09:08.353Z</time></trkpt><trkpt lat="22.2560185" lon="114.0040438"><ele>173.0</ele><time>2026-03-29T05:09:12.352Z</time></trkpt><trkpt lat="22.2559478" lon="114.0040909"><ele>173.0</ele><time>2026-03-29T05:09:17.354Z</time></trkpt><trkpt lat="22.2558737" lon="114.0040732"><ele>173.0</ele><time>2026-03-29T05:09:20.352Z</time></trkpt><trkpt lat="22.2558128" lon="114.0040555"><ele>173.0</ele><time>2026-03-29T05:09:24.353Z</time></trkpt><trkpt lat="22.2557379" lon="114.0040938"><ele>173.0</ele><time>2026-03-29T05:09:29.354Z</time></trkpt><trkpt lat="22.2556636" lon="114.004124"><ele>173.0</ele><time>2026-03-29T05:09:33.354Z</time></trkpt><trkpt lat="22.2555901" lon="114.004122"><ele>173.0</ele><time>2026-03-29T05:09:36.355Z</time></trkpt><trkpt lat="22.2555195" lon="114.0041263"><ele>173.0</ele><time>2026-03-29T05:09:40.353Z</time></trkpt><trkpt lat="22.255452" lon="114.0040917"><ele>173.0</ele><time>2026-03-29T05:09:45.354Z</time></trkpt><trkpt lat="22.2554122" lon="114.0040249"><ele>173.0</ele><time>2026-03-29T05:09:49.354Z</time></trkpt><trkpt lat="22.2553726" lon="114.0039695"><ele>173.0</ele><time>2026-03-29T05:09:53.354Z</time></trkpt><trkpt lat="22.2553376" lon="114.003908"><ele>173.85714285714286</ele><time>2026-03-29T05:09:59.353Z</time></trkpt><trkpt lat="22.255305" lon="114.0038368"><ele>174.71428571428572</ele><time>2026-03-29T05:10:04.353Z</time></trkpt><trkpt lat="22.2552946" lon="114.0037689"><ele>175.57142857142858</ele><time>2026-03-29T05:10:08.353Z</time></trkpt><trkpt lat="22.2552791" lon="114.0036935"><ele>176.42857142857144</ele><time>2026-03-29T05:10:13.354Z</time></trkpt><trkpt lat="22.2552333" lon="114.0036326"><ele>177.28571428571428</ele><time>2026-03-29T05:10:18.354Z</time></trkpt><trkpt lat="22.255162" lon="114.0036368"><ele>178.14285714285717</ele><time>2026-03-29T05:10:22.355Z</time></trkpt><trkpt lat="22.2550965" lon="114.0036564"><ele>179.0</ele><time>2026-03-29T05:10:26.353Z</time></trkpt><trkpt lat="22.2550309" lon="114.0036602"><ele>179.00000000000003</ele><time>2026-03-29T05:10:30.354Z</time></trkpt><trkpt lat="22.25496" lon="114.0036426"><ele>179.0</ele><time>2026-03-29T05:10:37.354Z</time></trkpt><trkpt lat="22.2548989" lon="114.0036043"><ele>179.0</ele><time>2026-03-29T05:10:42.355Z</time></trkpt><trkpt lat="22.2548484" lon="114.0035408"><ele>179.0</ele><time>2026-03-29T05:10:48.355Z</time></trkpt><trkpt lat="22.2548095" lon="114.003478"><ele>179.0</ele><time>2026-03-29T05:10:52.354Z</time></trkpt><trkpt lat="22.2547929" lon="114.0033931"><ele>179.00000000000003</ele><time>2026-03-29T05:10:57.354Z</time></trkpt><trkpt lat="22.2547842" lon="114.0033249"><ele>179.0</ele><time>2026-03-29T05:11:00.354Z</time></trkpt><trkpt lat="22.2547999" lon="114.0032542"><ele>175.83333333333331</ele><time>2026-03-29T05:11:03.354Z</time></trkpt><trkpt lat="22.2548449" lon="114.003192"><ele>172.66666666666666</ele><time>2026-03-29T05:11:09.354Z</time></trkpt><trkpt lat="22.2548898" lon="114.0031411"><ele>169.5</ele><time>2026-03-29T05:11:13.354Z</time></trkpt><trkpt lat="22.2549478" lon="114.0031098"><ele>166.33333333333334</ele><time>2026-03-29T05:11:15.354Z</time></trkpt><trkpt lat="22.2550127" lon="114.0030953"><ele>163.16666666666669</ele><time>2026-03-29T05:11:17.355Z</time></trkpt><trkpt lat="22.2551057" lon="114.0031063"><ele>160.0</ele><time>2026-03-29T05:11:20.355Z</time></trkpt><trkpt lat="22.2551993" lon="114.0031217"><ele>160.0</ele><time>2026-03-29T05:11:23.354Z</time></trkpt><trkpt lat="22.255284" lon="114.0031588"><ele>160.0</ele><time>2026-03-29T05:11:25.354Z</time></trkpt><trkpt lat="22.2553846" lon="114.00318"><ele>160.0</ele><time>2026-03-29T05:11:27.356Z</time></trkpt><trkpt lat="22.2554818" lon="114.0031833"><ele>160.0</ele><time>2026-03-29T05:11:29.355Z</time></trkpt><trkpt lat="22.255567" lon="114.0031895"><ele>160.0</ele><time>2026-03-29T05:11:31.355Z</time></trkpt><trkpt lat="22.2556357" lon="114.0031712"><ele>160.0</ele><time>2026-03-29T05:11:33.355Z</time></trkpt><trkpt lat="22.2556711" lon="114.0031126"><ele>162.0</ele><time>2026-03-29T05:11:35.356Z</time></trkpt><trkpt lat="22.2556956" lon="114.003013"><ele>164.0</ele><time>2026-03-29T05:11:38.355Z</time></trkpt><trkpt lat="22.2557098" lon="114.0029433"><ele>166.0</ele><time>2026-03-29T05:11:40.356Z</time></trkpt><trkpt lat="22.2557188" lon="114.002871"><ele>168.0</ele><time>2026-03-29T05:11:42.356Z</time></trkpt><trkpt lat="22.2557175" lon="114.0027673"><ele>170.0</ele><time>2026-03-29T05:11:44.355Z</time></trkpt><trkpt lat="22.2557275" lon="114.002644"><ele>172.0</ele><time>2026-03-29T05:11:46.356Z</time></trkpt><trkpt lat="22.2557508" lon="114.0025177"><ele>169.75</ele><time>2026-03-29T05:11:48.355Z</time></trkpt><trkpt lat="22.255797" lon="114.0023924"><ele>167.5</ele><time>2026-03-29T05:11:50.356Z</time></trkpt><trkpt lat="22.2558449" lon="114.0022785"><ele>165.25</ele><time>2026-03-29T05:11:52.356Z</time></trkpt><trkpt lat="22.2558986" lon="114.0021731"><ele>163.0</ele><time>2026-03-29T05:11:54.356Z</time></trkpt><trkpt lat="22.2559847" lon="114.0020758"><ele>163.0</ele><time>2026-03-29T05:11:56.355Z</time></trkpt><trkpt lat="22.2560608" lon="114.0020013"><ele>163.0</ele><time>2026-03-29T05:11:58.356Z</time></trkpt><trkpt lat="22.2561389" lon="114.0019631"><ele>163.0</ele><time>2026-03-29T05:12:00.356Z</time></trkpt><trkpt lat="22.2562166" lon="114.0018851"><ele>163.0</ele><time>2026-03-29T05:12:03.356Z</time></trkpt><trkpt lat="22.2562508" lon="114.0018253"><ele>163.0</ele><time>2026-03-29T05:12:04.356Z</time></trkpt><trkpt lat="22.256251" lon="114.0017092"><ele>161.6</ele><time>2026-03-29T05:12:06.356Z</time></trkpt><trkpt lat="22.2562324" lon="114.0016138"><ele>160.20000000000002</ele><time>2026-03-29T05:12:08.355Z</time></trkpt><trkpt lat="22.2562012" lon="114.0015358"><ele>158.8</ele><time>2026-03-29T05:12:10.356Z</time></trkpt><trkpt lat="22.2561795" lon="114.0014464"><ele>157.4</ele><time>2026-03-29T05:12:12.355Z</time></trkpt><trkpt lat="22.2561621" lon="114.001341"><ele>156.0</ele><time>2026-03-29T05:12:15.356Z</time></trkpt><trkpt lat="22.2561358" lon="114.001238"><ele>156.0</ele><time>2026-03-29T05:12:17.356Z</time></trkpt><trkpt lat="22.2561358" lon="114.001124"><ele>156.0</ele><time>2026-03-29T05:12:19.356Z</time></trkpt><trkpt lat="22.256164" lon="114.0010214"><ele>156.0</ele><time>2026-03-29T05:12:21.357Z</time></trkpt><trkpt lat="22.2562294" lon="114.0009326"><ele>156.0</ele><time>2026-03-29T05:12:23.356Z</time></trkpt><trkpt lat="22.256283" lon="114.0008648"><ele>156.0</ele><time>2026-03-29T05:12:25.356Z</time></trkpt><trkpt lat="22.2563534" lon="114.0007992"><ele>152.2</ele><time>2026-03-29T05:12:27.356Z</time></trkpt><trkpt lat="22.2564126" lon="114.0007285"><ele>148.39999999999998</ele><time>2026-03-29T05:12:29.356Z</time></trkpt><trkpt lat="22.256495" lon="114.0006693"><ele>144.6</ele><time>2026-03-29T05:12:31.356Z</time></trkpt><trkpt lat="22.2566032" lon="114.0006402"><ele>140.79999999999998</ele><time>2026-03-29T05:12:33.357Z</time></trkpt><trkpt lat="22.2566787" lon="114.0006472"><ele>137.0</ele><time>2026-03-29T05:12:35.356Z</time></trkpt><trkpt lat="22.2567225" lon="114.0007176"><ele>137.0</ele><time>2026-03-29T05:12:38.355Z</time></trkpt><trkpt lat="22.2567764" lon="114.0007536"><ele>137.0</ele><time>2026-03-29T05:12:41.356Z</time></trkpt><trkpt lat="22.2568362" lon="114.0008"><ele>137.0</ele><time>2026-03-29T05:12:44.357Z</time></trkpt><trkpt lat="22.2568932" lon="114.0008432"><ele>137.0</ele><time>2026-03-29T05:13:00.357Z</time></trkpt><trkpt lat="22.2569651" lon="114.000884"><ele>137.0</ele><time>2026-03-29T05:13:03.356Z</time></trkpt><trkpt lat="22.2570383" lon="114.0009562"><ele>137.0</ele><time>2026-03-29T05:13:05.356Z</time></trkpt><trkpt lat="22.2571257" lon="114.0010091"><ele>141.6</ele><time>2026-03-29T05:13:07.357Z</time></trkpt><trkpt lat="22.2571838" lon="114.0010746"><ele>146.2</ele><time>2026-03-29T05:13:09.356Z</time></trkpt><trkpt lat="22.2572129" lon="114.0011581"><ele>150.8</ele><time>2026-03-29T05:13:11.357Z</time></trkpt><trkpt lat="22.257204" lon="114.0012639"><ele>155.4</ele><time>2026-03-29T05:13:13.356Z</time></trkpt><trkpt lat="22.2571896" lon="114.0013785"><ele>160.0</ele><time>2026-03-29T05:13:15.356Z</time></trkpt><trkpt lat="22.2571838" lon="114.0014763"><ele>160.0</ele><time>2026-03-29T05:13:17.357Z</time></trkpt><trkpt lat="22.2571692" lon="114.0015433"><ele>160.0</ele><time>2026-03-29T05:13:19.357Z</time></trkpt><trkpt lat="22.2571558" lon="114.0016302"><ele>160.0</ele><time>2026-03-29T05:13:22.356Z</time></trkpt><trkpt lat="22.2572182" lon="114.0016862"><ele>160.0</ele><time>2026-03-29T05:13:25.356Z</time></trkpt><trkpt lat="22.2573099" lon="114.0016128"><ele>160.0</ele><time>2026-03-29T05:13:27.356Z</time></trkpt><trkpt lat="22.2573708" lon="114.0015812"><ele>160.0</ele><time>2026-03-29T05:13:28.356Z</time></trkpt><trkpt lat="22.2574735" lon="114.0015509"><ele>159.8</ele><time>2026-03-29T05:13:30.356Z</time></trkpt><trkpt lat="22.2575826" lon="114.0015545"><ele>159.6</ele><time>2026-03-29T05:13:32.357Z</time></trkpt><trkpt lat="22.2576944" lon="114.0015668"><ele>159.4</ele><time>2026-03-29T05:13:34.357Z</time></trkpt><trkpt lat="22.2578049" lon="114.0015968"><ele>159.2</ele><time>2026-03-29T05:13:36.357Z</time></trkpt><trkpt lat="22.2578364" lon="114.0016752"><ele>159.0</ele><time>2026-03-29T05:13:39.356Z</time></trkpt><trkpt lat="22.2578277" lon="114.001755"><ele>159.0</ele><time>2026-03-29T05:13:41.356Z</time></trkpt><trkpt lat="22.2578427" lon="114.0018213"><ele>159.0</ele><time>2026-03-29T05:13:43.356Z</time></trkpt><trkpt lat="22.2579035" lon="114.0017521"><ele>159.0</ele><time>2026-03-29T05:13:46.356Z</time></trkpt><trkpt lat="22.257893" lon="114.0016338"><ele>159.0</ele><time>2026-03-29T05:13:48.357Z</time></trkpt><trkpt lat="22.2578803" lon="114.0015541"><ele>159.0</ele><time>2026-03-29T05:13:50.357Z</time></trkpt><trkpt lat="22.2579124" lon="114.0014736"><ele>159.0</ele><time>2026-03-29T05:13:52.357Z</time></trkpt><trkpt lat="22.2579557" lon="114.0013699"><ele>156.5</ele><time>2026-03-29T05:13:54.358Z</time></trkpt><trkpt lat="22.2580076" lon="114.0012585"><ele>154.0</ele><time>2026-03-29T05:13:56.358Z</time></trkpt><trkpt lat="22.2580352" lon="114.0011942"><ele>151.5</ele><time>2026-03-29T05:13:57.358Z</time></trkpt><trkpt lat="22.258078" lon="114.0011409"><ele>149.0</ele><time>2026-03-29T05:13:58.357Z</time></trkpt><trkpt lat="22.2581406" lon="114.0011161"><ele>146.5</ele><time>2026-03-29T05:13:59.358Z</time></trkpt><trkpt lat="22.2582162" lon="114.0010988"><ele>144.0</ele><time>2026-03-29T05:14:00.358Z</time></trkpt><trkpt lat="22.2581174" lon="114.0011433"><ele>144.0</ele><time>2026-03-29T05:14:06.357Z</time></trkpt><trkpt lat="22.2580103" lon="114.001181"><ele>144.0</ele><time>2026-03-29T05:14:08.358Z</time></trkpt><trkpt lat="22.257928" lon="114.0012063"><ele>144.0</ele><time>2026-03-29T05:14:10.358Z</time></trkpt><trkpt lat="22.2579357" lon="114.001281"><ele>144.0</ele><time>2026-03-29T05:14:14.357Z</time></trkpt><trkpt lat="22.2578902" lon="114.0013334"><ele>144.0</ele><time>2026-03-29T05:14:17.357Z</time></trkpt><trkpt lat="22.2578188" lon="114.0013782"><ele>144.0</ele><time>2026-03-29T05:14:20.357Z</time></trkpt><trkpt lat="22.2577793" lon="114.0014495"><ele>144.00000000000003</ele><time>2026-03-29T05:14:24.357Z</time></trkpt><trkpt lat="22.2577756" lon="114.0015176"><ele>144.0</ele><time>2026-03-29T05:14:28.358Z</time></trkpt><trkpt lat="22.2577857" lon="114.0015895"><ele>144.0</ele><time>2026-03-29T05:14:31.357Z</time></trkpt><trkpt lat="22.2577843" lon="114.0016786"><ele>144.0</ele><time>2026-03-29T05:14:33.357Z</time></trkpt><trkpt lat="22.257754" lon="114.0017626"><ele>144.0</ele><time>2026-03-29T05:14:35.358Z</time></trkpt><trkpt lat="22.2577447" lon="114.001838"><ele>144.00000000000003</ele><time>2026-03-29T05:14:38.357Z</time></trkpt><trkpt lat="22.257789" lon="114.0018967"><ele>144.0</ele><time>2026-03-29T05:14:42.358Z</time></trkpt><trkpt lat="22.2578425" lon="114.0018304"><ele>144.0</ele><time>2026-03-29T05:14:46.359Z</time></trkpt><trkpt lat="22.2578847" lon="114.0017071"><ele>144.0</ele><time>2026-03-29T05:14:48.359Z</time></trkpt><trkpt lat="22.2579388" lon="114.0016109"><ele>144.0</ele><time>2026-03-29T05:14:50.357Z</time></trkpt><trkpt lat="22.2579808" lon="114.0015229"><ele>144.0</ele><time>2026-03-29T05:14:52.357Z</time></trkpt><trkpt lat="22.2580341" lon="114.00143"><ele>144.0</ele><time>2026-03-29T05:14:54.358Z</time></trkpt><trkpt lat="22.2580877" lon="114.0013216"><ele>144.0</ele><time>2026-03-29T05:14:56.358Z</time></trkpt><trkpt lat="22.2581277" lon="114.0012233"><ele>144.0</ele><time>2026-03-29T05:14:58.358Z</time></trkpt><trkpt lat="22.2581947" lon="114.0011255"><ele>144.0</ele><time>2026-03-29T05:15:00.359Z</time></trkpt><trkpt lat="22.258229" lon="114.0010564"><ele>144.0</ele><time>2026-03-29T05:15:02.359Z</time></trkpt><trkpt lat="22.2581634" lon="114.0010837"><ele>144.0</ele><time>2026-03-29T05:15:04.359Z</time></trkpt><trkpt lat="22.2581065" lon="114.0011166"><ele>144.0</ele><time>2026-03-29T05:15:05.359Z</time></trkpt><trkpt lat="22.2580243" lon="114.0011661"><ele>144.00000000000003</ele><time>2026-03-29T05:15:07.358Z</time></trkpt><trkpt lat="22.2579574" lon="114.0011933"><ele>144.0</ele><time>2026-03-29T05:15:09.359Z</time></trkpt><trkpt lat="22.257919" lon="114.0012681"><ele>144.0</ele><time>2026-03-29T05:15:12.358Z</time></trkpt><trkpt lat="22.2579069" lon="114.0013447"><ele>144.0</ele><time>2026-03-29T05:15:16.358Z</time></trkpt><trkpt lat="22.2578427" lon="114.0013687"><ele>144.0</ele><time>2026-03-29T05:15:20.359Z</time></trkpt><trkpt lat="22.2578049" lon="114.0014259"><ele>144.00000000000003</ele><time>2026-03-29T05:15:24.359Z</time></trkpt><trkpt lat="22.2577998" lon="114.0015045"><ele>144.0</ele><time>2026-03-29T05:15:28.359Z</time></trkpt><trkpt lat="22.2578213" lon="114.0015937"><ele>146.5</ele><time>2026-03-29T05:15:50.359Z</time></trkpt><trkpt lat="22.257824" lon="114.0016739"><ele>149.0</ele><time>2026-03-29T05:15:53.358Z</time></trkpt><trkpt lat="22.2578067" lon="114.0017421"><ele>151.5</ele><time>2026-03-29T05:16:11.36Z</time></trkpt><trkpt lat="22.2577941" lon="114.0018091"><ele>154.0</ele><time>2026-03-29T05:16:14.36Z</time></trkpt><trkpt lat="22.2578152" lon="114.001891"><ele>156.5</ele><time>2026-03-29T05:16:17.36Z</time></trkpt><trkpt lat="22.2578407" lon="114.0017953"><ele>159.0</ele><time>2026-03-29T05:16:23.36Z</time></trkpt><trkpt lat="22.2578643" lon="114.0016954"><ele>156.0</ele><time>2026-03-29T05:16:25.36Z</time></trkpt><trkpt lat="22.2578972" lon="114.0016062"><ele>153.0</ele><time>2026-03-29T05:16:27.36Z</time></trkpt><trkpt lat="22.2579336" lon="114.0015155"><ele>150.0</ele><time>2026-03-29T05:16:29.36Z</time></trkpt><trkpt lat="22.2579667" lon="114.0014225"><ele>147.0</ele><time>2026-03-29T05:16:31.36Z</time></trkpt><trkpt lat="22.2580044" lon="114.0013049"><ele>144.0</ele><time>2026-03-29T05:16:33.359Z</time></trkpt><trkpt lat="22.2580274" lon="114.0012124"><ele>144.0</ele><time>2026-03-29T05:16:35.36Z</time></trkpt><trkpt lat="22.258036" lon="114.0011293"><ele>144.0</ele><time>2026-03-29T05:16:37.359Z</time></trkpt><trkpt lat="22.2581226" lon="114.0010882"><ele>144.0</ele><time>2026-03-29T05:16:40.36Z</time></trkpt><trkpt lat="22.2580471" lon="114.0011182"><ele>144.0</ele><time>2026-03-29T05:16:42.36Z</time></trkpt><trkpt lat="22.2579725" lon="114.0011774"><ele>144.0</ele><time>2026-03-29T05:16:44.359Z</time></trkpt><trkpt lat="22.2579052" lon="114.0012126"><ele>144.0</ele><time>2026-03-29T05:16:47.36Z</time></trkpt><trkpt lat="22.2579356" lon="114.0012946"><ele>144.00000000000003</ele><time>2026-03-29T05:16:51.36Z</time></trkpt><trkpt lat="22.2579401" lon="114.0013743"><ele>144.0</ele><time>2026-03-29T05:16:55.359Z</time></trkpt><trkpt lat="22.2579585" lon="114.0014432"><ele>144.0</ele><time>2026-03-29T05:16:58.36Z</time></trkpt><trkpt lat="22.2579485" lon="114.0015246"><ele>144.0</ele><time>2026-03-29T05:17:03.36Z</time></trkpt><trkpt lat="22.2579207" lon="114.0015948"><ele>144.0</ele><time>2026-03-29T05:17:06.36Z</time></trkpt><trkpt lat="22.2578852" lon="114.0016766"><ele>144.00000000000003</ele><time>2026-03-29T05:17:10.359Z</time></trkpt><trkpt lat="22.257849" lon="114.0017473"><ele>144.0</ele><time>2026-03-29T05:17:14.361Z</time></trkpt><trkpt lat="22.2578195" lon="114.0018125"><ele>144.0</ele><time>2026-03-29T05:17:16.36Z</time></trkpt><trkpt lat="22.257857" lon="114.0017495"><ele>144.0</ele><time>2026-03-29T05:18:37.407Z</time></trkpt><trkpt lat="22.2579107" lon="114.0016496"><ele>144.0</ele><time>2026-03-29T05:18:39.484Z</time></trkpt><trkpt lat="22.2579715" lon="114.001562"><ele>144.0</ele><time>2026-03-29T05:18:41.459Z</time></trkpt><trkpt lat="22.2580444" lon="114.00147"><ele>144.0</ele><time>2026-03-29T05:18:43.435Z</time></trkpt><trkpt lat="22.2580698" lon="114.0013931"><ele>144.0</ele><time>2026-03-29T05:18:44.361Z</time></trkpt><trkpt lat="22.2581382" lon="114.0012944"><ele>144.0</ele><time>2026-03-29T05:18:47.455Z</time></trkpt><trkpt lat="22.2581834" lon="114.0012398"><ele>144.0</ele><time>2026-03-29T05:18:48.491Z</time></trkpt><trkpt lat="22.2582601" lon="114.0011458"><ele>144.0</ele><time>2026-03-29T05:18:50.555Z</time></trkpt><trkpt lat="22.2581838" lon="114.0010792"><ele>144.0</ele><time>2026-03-29T05:18:52.443Z</time></trkpt><trkpt lat="22.2581147" lon="114.0010838"><ele>144.00000000000003</ele><time>2026-03-29T05:18:54.537Z</time></trkpt><trkpt lat="22.2580451" lon="114.0011117"><ele>144.0</ele><time>2026-03-29T05:18:56.504Z</time></trkpt><trkpt lat="22.2579737" lon="114.0011355"><ele>144.0</ele><time>2026-03-29T05:18:58.456Z</time></trkpt><trkpt lat="22.2579379" lon="114.0012089"><ele>144.0</ele><time>2026-03-29T05:19:00.448Z</time></trkpt><trkpt lat="22.2579158" lon="114.0012736"><ele>144.0</ele><time>2026-03-29T05:19:02.518Z</time></trkpt><trkpt lat="22.2578937" lon="114.0013397"><ele>144.00000000000003</ele><time>2026-03-29T05:19:05.438Z</time></trkpt><trkpt lat="22.2578978" lon="114.0014143"><ele>144.0</ele><time>2026-03-29T05:19:08.46Z</time></trkpt><trkpt lat="22.2579076" lon="114.0014925"><ele>144.0</ele><time>2026-03-29T05:19:11.466Z</time></trkpt><trkpt lat="22.257896" lon="114.0015715"><ele>144.0</ele><time>2026-03-29T05:19:15.534Z</time></trkpt><trkpt lat="22.2578838" lon="114.0016502"><ele>144.0</ele><time>2026-03-29T05:19:18.439Z</time></trkpt><trkpt lat="22.2578584" lon="114.0017265"><ele>144.0</ele><time>2026-03-29T05:19:21.462Z</time></trkpt><trkpt lat="22.2578172" lon="114.0018118"><ele>144.0</ele><time>2026-03-29T05:19:24.484Z</time></trkpt><trkpt lat="22.25786" lon="114.00175"><ele>144.0</ele><time>2026-03-29T05:21:57.46Z</time></trkpt><trkpt lat="22.2578754" lon="114.0016625"><ele>144.0</ele><time>2026-03-29T05:21:59.444Z</time></trkpt><trkpt lat="22.2578985" lon="114.00157"><ele>144.0</ele><time>2026-03-29T05:22:01.537Z</time></trkpt><trkpt lat="22.2579377" lon="114.0014796"><ele>144.0</ele><time>2026-03-29T05:22:03.505Z</time></trkpt><trkpt lat="22.2580176" lon="114.0014034"><ele>144.0</ele><time>2026-03-29T05:22:05.491Z</time></trkpt><trkpt lat="22.2580771" lon="114.0013285"><ele>144.0</ele><time>2026-03-29T05:22:07.467Z</time></trkpt><trkpt lat="22.2581306" lon="114.0012496"><ele>144.00000000000003</ele><time>2026-03-29T05:22:09.551Z</time></trkpt><trkpt lat="22.2581925" lon="114.0011704"><ele>144.0</ele><time>2026-03-29T05:22:11.528Z</time></trkpt><trkpt lat="22.2581765" lon="114.0010987"><ele>144.0</ele><time>2026-03-29T05:22:13.565Z</time></trkpt><trkpt lat="22.2581722" lon="114.0010082"><ele>144.0</ele><time>2026-03-29T05:22:17.455Z</time></trkpt><trkpt lat="22.2582313" lon="114.0010373"><ele>144.0</ele><time>2026-03-29T05:22:21.525Z</time></trkpt><trkpt lat="22.2581996" lon="114.0009777"><ele>144.00000000000003</ele><time>2026-03-29T05:22:29.392Z</time></trkpt><trkpt lat="22.2581665" lon="114.0009181"><ele>144.0</ele><time>2026-03-29T05:22:32.452Z</time></trkpt><trkpt lat="22.2580864" lon="114.0008655"><ele>144.0</ele><time>2026-03-29T05:22:38.424Z</time></trkpt><trkpt lat="22.2580152" lon="114.0008574"><ele>144.0</ele><time>2026-03-29T05:22:40.473Z</time></trkpt><trkpt lat="22.257953" lon="114.000882"><ele>144.0</ele><time>2026-03-29T05:22:42.448Z</time></trkpt><trkpt lat="22.2578877" lon="114.0009093"><ele>144.0</ele><time>2026-03-29T05:22:44.542Z</time></trkpt><trkpt lat="22.2578028" lon="114.0008831"><ele>144.0</ele><time>2026-03-29T05:22:47.448Z</time></trkpt><trkpt lat="22.2577179" lon="114.0010476"><ele>144.0</ele><time>2026-03-29T05:22:49.539Z</time></trkpt><trkpt lat="22.2576834" lon="114.0011864"><ele>144.0</ele><time>2026-03-29T05:22:50.47Z</time></trkpt><trkpt lat="22.2576489" lon="114.0012895"><ele>144.0</ele><time>2026-03-29T05:22:52.446Z</time></trkpt><trkpt lat="22.2576349" lon="114.0013827"><ele>144.0</ele><time>2026-03-29T05:22:55.469Z</time></trkpt><trkpt lat="22.2575503" lon="114.0014033"><ele>144.0</ele><time>2026-03-29T05:22:59.537Z</time></trkpt><trkpt lat="22.2574648" lon="114.0014056"><ele>144.0</ele><time>2026-03-29T05:23:02.559Z</time></trkpt><trkpt lat="22.2574483" lon="114.0013316"><ele>144.0</ele><time>2026-03-29T05:23:05.464Z</time></trkpt><trkpt lat="22.2574682" lon="114.0012474"><ele>144.0</ele><time>2026-03-29T05:23:08.525Z</time></trkpt><trkpt lat="22.2574717" lon="114.0011548"><ele>144.0</ele><time>2026-03-29T05:23:10.463Z</time></trkpt><trkpt lat="22.2574643" lon="114.0010394"><ele>144.0</ele><time>2026-03-29T05:23:12.556Z</time></trkpt><trkpt lat="22.2574518" lon="114.0007998"><ele>142.83333333333334</ele><time>2026-03-29T05:23:15.366Z</time></trkpt><trkpt lat="22.2574411" lon="114.0007308"><ele>141.66666666666666</ele><time>2026-03-29T05:23:16.366Z</time></trkpt><trkpt lat="22.2574313" lon="114.0006612"><ele>140.5</ele><time>2026-03-29T05:23:17.366Z</time></trkpt><trkpt lat="22.2573828" lon="114.0005851"><ele>139.33333333333331</ele><time>2026-03-29T05:23:19.366Z</time></trkpt><trkpt lat="22.2572849" lon="114.0005783"><ele>138.16666666666666</ele><time>2026-03-29T05:23:22.365Z</time></trkpt><trkpt lat="22.2572105" lon="114.0005501"><ele>137.0</ele><time>2026-03-29T05:23:25.366Z</time></trkpt><trkpt lat="22.2571794" lon="114.0004547"><ele>137.0</ele><time>2026-03-29T05:23:28.366Z</time></trkpt><trkpt lat="22.25711" lon="114.000408"><ele>137.0</ele><time>2026-03-29T05:23:31.365Z</time></trkpt><trkpt lat="22.2571011" lon="114.0003306"><ele>137.0</ele><time>2026-03-29T05:23:35.366Z</time></trkpt><trkpt lat="22.2570831" lon="114.0002554"><ele>137.0</ele><time>2026-03-29T05:23:38.365Z</time></trkpt><trkpt lat="22.2570161" lon="114.0002056"><ele>137.0</ele><time>2026-03-29T05:23:44.366Z</time></trkpt><trkpt lat="22.2569326" lon="114.0001506"><ele>137.0</ele><time>2026-03-29T05:23:47.366Z</time></trkpt><trkpt lat="22.2568332" lon="114.0001685"><ele>137.00000000000003</ele><time>2026-03-29T05:23:50.366Z</time></trkpt><trkpt lat="22.2567693" lon="114.0002098"><ele>137.0</ele><time>2026-03-29T05:23:53.366Z</time></trkpt><trkpt lat="22.2567199" lon="114.0001072"><ele>137.0</ele><time>2026-03-29T05:23:56.365Z</time></trkpt><trkpt lat="22.2567204" lon="114.0000366"><ele>137.0</ele><time>2026-03-29T05:23:57.365Z</time></trkpt><trkpt lat="22.2567192" lon="113.9999653"><ele>137.0</ele><time>2026-03-29T05:23:58.367Z</time></trkpt><trkpt lat="22.2567099" lon="113.9998895"><ele>137.00000000000003</ele><time>2026-03-29T05:23:59.365Z</time></trkpt><trkpt lat="22.2567132" lon="113.9998206"><ele>137.0</ele><time>2026-03-29T05:24:00.366Z</time></trkpt><trkpt lat="22.2567085" lon="113.9996961"><ele>137.0</ele><time>2026-03-29T05:24:02.366Z</time></trkpt><trkpt lat="22.2566527" lon="113.9996139"><ele>137.0</ele><time>2026-03-29T05:24:04.366Z</time></trkpt><trkpt lat="22.2565688" lon="113.9995724"><ele>137.0</ele><time>2026-03-29T05:24:06.367Z</time></trkpt><trkpt lat="22.2564655" lon="113.9995494"><ele>137.0</ele><time>2026-03-29T05:24:08.367Z</time></trkpt><trkpt lat="22.2563834" lon="113.9995531"><ele>137.0</ele><time>2026-03-29T05:24:10.367Z</time></trkpt><trkpt lat="22.2563988" lon="113.9994737"><ele>137.0</ele><time>2026-03-29T05:24:14.367Z</time></trkpt><trkpt lat="22.2564846" lon="113.9994751"><ele>136.16666666666666</ele><time>2026-03-29T05:24:16.367Z</time></trkpt><trkpt lat="22.256417" lon="113.9994088"><ele>135.33333333333331</ele><time>2026-03-29T05:24:21.367Z</time></trkpt><trkpt lat="22.2563539" lon="113.9994463"><ele>134.5</ele><time>2026-03-29T05:24:24.367Z</time></trkpt><trkpt lat="22.2563103" lon="113.9995328"><ele>133.66666666666666</ele><time>2026-03-29T05:24:26.366Z</time></trkpt><trkpt lat="22.2562817" lon="113.9994457"><ele>132.83333333333334</ele><time>2026-03-29T05:24:30.367Z</time></trkpt><trkpt lat="22.2563379" lon="113.9993646"><ele>132.0</ele><time>2026-03-29T05:24:32.366Z</time></trkpt><trkpt lat="22.2564068" lon="113.9993393"><ele>132.0</ele><time>2026-03-29T05:24:34.367Z</time></trkpt><trkpt lat="22.2564381" lon="113.9992773"><ele>132.0</ele><time>2026-03-29T05:24:37.367Z</time></trkpt><trkpt lat="22.2563582" lon="113.9992895"><ele>132.0</ele><time>2026-03-29T05:24:39.367Z</time></trkpt><trkpt lat="22.2563041" lon="113.9993765"><ele>132.0</ele><time>2026-03-29T05:24:41.367Z</time></trkpt><trkpt lat="22.2562216" lon="113.9993671"><ele>132.0</ele><time>2026-03-29T05:24:44.367Z</time></trkpt><trkpt lat="22.2562721" lon="113.9992543"><ele>132.0</ele><time>2026-03-29T05:24:46.367Z</time></trkpt><trkpt lat="22.2563053" lon="113.9991679"><ele>129.2</ele><time>2026-03-29T05:24:48.367Z</time></trkpt><trkpt lat="22.2563203" lon="113.9990572"><ele>126.39999999999999</ele><time>2026-03-29T05:24:50.366Z</time></trkpt><trkpt lat="22.2563987" lon="113.9989867"><ele>123.60000000000001</ele><time>2026-03-29T05:24:52.366Z</time></trkpt><trkpt lat="22.2565076" lon="113.9989872"><ele>120.80000000000001</ele><time>2026-03-29T05:24:54.367Z</time></trkpt><trkpt lat="22.2565764" lon="113.9990771"><ele>118.0</ele><time>2026-03-29T05:24:56.368Z</time></trkpt><trkpt lat="22.2566167" lon="113.9991653"><ele>121.16666666666667</ele><time>2026-03-29T05:24:58.366Z</time></trkpt><trkpt lat="22.2566426" lon="113.9992743"><ele>124.33333333333334</ele><time>2026-03-29T05:25:00.368Z</time></trkpt><trkpt lat="22.2566731" lon="113.9993438"><ele>127.5</ele><time>2026-03-29T05:25:02.366Z</time></trkpt><trkpt lat="22.2567529" lon="113.9993178"><ele>130.66666666666666</ele><time>2026-03-29T05:25:04.366Z</time></trkpt><trkpt lat="22.2568432" lon="113.9992981"><ele>133.83333333333331</ele><time>2026-03-29T05:25:06.366Z</time></trkpt><trkpt lat="22.256791" lon="113.9992487"><ele>137.0</ele><time>2026-03-29T05:25:10.366Z</time></trkpt><trkpt lat="22.2566711" lon="113.9992414"><ele>133.83333333333331</ele><time>2026-03-29T05:25:12.367Z</time></trkpt><trkpt lat="22.2566338" lon="113.9991457"><ele>130.66666666666666</ele><time>2026-03-29T05:25:15.368Z</time></trkpt><trkpt lat="22.2566225" lon="113.9990745"><ele>127.5</ele><time>2026-03-29T05:25:17.367Z</time></trkpt><trkpt lat="22.2565969" lon="113.9989872"><ele>124.33333333333334</ele><time>2026-03-29T05:25:19.368Z</time></trkpt><trkpt lat="22.2565498" lon="113.9989367"><ele>121.16666666666667</ele><time>2026-03-29T05:25:21.368Z</time></trkpt><trkpt lat="22.2564801" lon="113.9989206"><ele>118.0</ele><time>2026-03-29T05:25:24.368Z</time></trkpt><trkpt lat="22.2563998" lon="113.9988576"><ele>118.00000000000001</ele><time>2026-03-29T05:25:27.367Z</time></trkpt><trkpt lat="22.2564813" lon="113.9988605"><ele>118.0</ele><time>2026-03-29T05:25:30.368Z</time></trkpt><trkpt lat="22.2564592" lon="113.9987765"><ele>118.0</ele><time>2026-03-29T05:25:36.367Z</time></trkpt><trkpt lat="22.2563828" lon="113.9987623"><ele>118.0</ele><time>2026-03-29T05:25:38.367Z</time></trkpt><trkpt lat="22.2564403" lon="113.9987152"><ele>118.00000000000001</ele><time>2026-03-29T05:25:42.367Z</time></trkpt><trkpt lat="22.2563793" lon="113.9986615"><ele>118.0</ele><time>2026-03-29T05:25:48.368Z</time></trkpt><trkpt lat="22.2562898" lon="113.9986379"><ele>116.71428571428571</ele><time>2026-03-29T05:25:50.367Z</time></trkpt><trkpt lat="22.2562001" lon="113.998645"><ele>115.42857142857143</ele><time>2026-03-29T05:25:52.367Z</time></trkpt><trkpt lat="22.2561582" lon="113.9987103"><ele>114.14285714285714</ele><time>2026-03-29T05:25:54.368Z</time></trkpt><trkpt lat="22.2561453" lon="113.9987773"><ele>112.85714285714286</ele><time>2026-03-29T05:25:56.368Z</time></trkpt><trkpt lat="22.2560795" lon="113.9987852"><ele>111.57142857142858</ele><time>2026-03-29T05:25:59.368Z</time></trkpt><trkpt lat="22.2560974" lon="113.9987066"><ele>110.28571428571429</ele><time>2026-03-29T05:26:01.369Z</time></trkpt><trkpt lat="22.2561361" lon="113.9986371"><ele>109.0</ele><time>2026-03-29T05:26:03.369Z</time></trkpt><trkpt lat="22.2561713" lon="113.9985704"><ele>109.00000000000001</ele><time>2026-03-29T05:26:05.368Z</time></trkpt><trkpt lat="22.2562386" lon="113.9985118"><ele>109.0</ele><time>2026-03-29T05:26:07.368Z</time></trkpt><trkpt lat="22.2563245" lon="113.9984836"><ele>109.0</ele><time>2026-03-29T05:26:09.368Z</time></trkpt><trkpt lat="22.2564092" lon="113.9984938"><ele>109.0</ele><time>2026-03-29T05:26:11.367Z</time></trkpt><trkpt lat="22.2564765" lon="113.998497"><ele>109.00000000000001</ele><time>2026-03-29T05:26:13.368Z</time></trkpt><trkpt lat="22.256544" lon="113.9984703"><ele>109.0</ele><time>2026-03-29T05:26:15.369Z</time></trkpt><trkpt lat="22.2566062" lon="113.9984431"><ele>110.28571428571429</ele><time>2026-03-29T05:26:32.369Z</time></trkpt><trkpt lat="22.2566402" lon="113.9985019"><ele>111.57142857142858</ele><time>2026-03-29T05:26:35.369Z</time></trkpt><trkpt lat="22.2566716" lon="113.9985725"><ele>112.85714285714286</ele><time>2026-03-29T05:26:40.368Z</time></trkpt><trkpt lat="22.2567022" lon="113.9986387"><ele>114.14285714285714</ele><time>2026-03-29T05:26:45.369Z</time></trkpt><trkpt lat="22.2567289" lon="113.998711"><ele>115.42857142857143</ele><time>2026-03-29T05:26:50.368Z</time></trkpt><trkpt lat="22.2567451" lon="113.9987903"><ele>116.71428571428571</ele><time>2026-03-29T05:26:54.369Z</time></trkpt><trkpt lat="22.2567471" lon="113.9988727"><ele>118.0</ele><time>2026-03-29T05:26:58.37Z</time></trkpt><trkpt lat="22.2568012" lon="113.9989104"><ele>118.0</ele><time>2026-03-29T05:27:03.369Z</time></trkpt><trkpt lat="22.2568391" lon="113.9989655"><ele>118.0</ele><time>2026-03-29T05:27:06.369Z</time></trkpt><trkpt lat="22.2568987" lon="113.9989967"><ele>118.0</ele><time>2026-03-29T05:27:11.369Z</time></trkpt><trkpt lat="22.2569724" lon="113.9990118"><ele>118.0</ele><time>2026-03-29T05:27:17.37Z</time></trkpt><trkpt lat="22.257038" lon="113.9990403"><ele>118.0</ele><time>2026-03-29T05:27:21.37Z</time></trkpt><trkpt lat="22.2570995" lon="113.9990749"><ele>118.0</ele><time>2026-03-29T05:27:26.37Z</time></trkpt><trkpt lat="22.2571415" lon="113.9991274"><ele>118.0</ele><time>2026-03-29T05:27:31.37Z</time></trkpt><trkpt lat="22.2571723" lon="113.9991917"><ele>120.71428571428571</ele><time>2026-03-29T05:27:36.37Z</time></trkpt><trkpt lat="22.2571926" lon="113.9992687"><ele>123.42857142857144</ele><time>2026-03-29T05:27:43.369Z</time></trkpt><trkpt lat="22.2571635" lon="113.9993362"><ele>126.14285714285715</ele><time>2026-03-29T05:27:50.37Z</time></trkpt><trkpt lat="22.2571407" lon="113.9994109"><ele>128.85714285714286</ele><time>2026-03-29T05:27:55.369Z</time></trkpt><trkpt lat="22.2571659" lon="113.999474"><ele>131.57142857142858</ele><time>2026-03-29T05:28:00.369Z</time></trkpt><trkpt lat="22.2571534" lon="113.9995546"><ele>134.2857142857143</ele><time>2026-03-29T05:28:06.369Z</time></trkpt><trkpt lat="22.2571677" lon="113.9996302"><ele>137.0</ele><time>2026-03-29T05:28:11.37Z</time></trkpt><trkpt lat="22.2571967" lon="113.9996923"><ele>137.00000000000003</ele><time>2026-03-29T05:28:17.37Z</time></trkpt><trkpt lat="22.257231" lon="113.9997497"><ele>137.0</ele><time>2026-03-29T05:28:22.369Z</time></trkpt><trkpt lat="22.2572666" lon="113.9998167"><ele>137.0</ele><time>2026-03-29T05:28:29.371Z</time></trkpt><trkpt lat="22.2573066" lon="113.9998722"><ele>137.0</ele><time>2026-03-29T05:28:34.37Z</time></trkpt><trkpt lat="22.257353" lon="113.9999308"><ele>137.0</ele><time>2026-03-29T05:28:39.371Z</time></trkpt><trkpt lat="22.2573976" lon="113.9999897"><ele>137.00000000000003</ele><time>2026-03-29T05:28:45.37Z</time></trkpt><trkpt lat="22.2574252" lon="114.0000647"><ele>137.0</ele><time>2026-03-29T05:28:52.37Z</time></trkpt><trkpt lat="22.2574682" lon="114.0001251"><ele>135.85714285714286</ele><time>2026-03-29T05:28:59.371Z</time></trkpt><trkpt lat="22.2575074" lon="114.0001826"><ele>134.71428571428572</ele><time>2026-03-29T05:29:04.37Z</time></trkpt><trkpt lat="22.2575734" lon="114.000231"><ele>133.57142857142856</ele><time>2026-03-29T05:29:09.371Z</time></trkpt><trkpt lat="22.257626" lon="114.0002877"><ele>132.42857142857144</ele><time>2026-03-29T05:29:16.37Z</time></trkpt><trkpt lat="22.2576822" lon="114.0003221"><ele>131.28571428571428</ele><time>2026-03-29T05:29:22.372Z</time></trkpt><trkpt lat="22.2577479" lon="114.0003265"><ele>130.14285714285714</ele><time>2026-03-29T05:29:28.371Z</time></trkpt><trkpt lat="22.2578221" lon="114.0002881"><ele>129.0</ele><time>2026-03-29T05:29:34.371Z</time></trkpt><trkpt lat="22.257878" lon="114.0002559"><ele>128.99999999999997</ele><time>2026-03-29T05:29:40.372Z</time></trkpt><trkpt lat="22.2579417" lon="114.0002057"><ele>129.0</ele><time>2026-03-29T05:29:45.372Z</time></trkpt><trkpt lat="22.2580051" lon="114.000163"><ele>129.0</ele><time>2026-03-29T05:29:51.372Z</time></trkpt><trkpt lat="22.2580696" lon="114.0001312"><ele>129.0</ele><time>2026-03-29T05:29:56.371Z</time></trkpt><trkpt lat="22.2581394" lon="114.0001047"><ele>129.0</ele><time>2026-03-29T05:30:01.372Z</time></trkpt><trkpt lat="22.258179" lon="114.0000367"><ele>128.99999999999997</ele><time>2026-03-29T05:30:07.372Z</time></trkpt><trkpt lat="22.2582055" lon="113.9999714"><ele>129.0</ele><time>2026-03-29T05:30:14.372Z</time></trkpt><trkpt lat="22.258248" lon="113.9999097"><ele>135.0</ele><time>2026-03-29T05:30:21.371Z</time></trkpt><trkpt lat="22.2582801" lon="113.9998374"><ele>135.0</ele><time>2026-03-29T05:30:26.372Z</time></trkpt><trkpt lat="22.2583343" lon="113.999792"><ele>135.0</ele><time>2026-03-29T05:30:33.373Z</time></trkpt><trkpt lat="22.2583918" lon="113.9997593"><ele>135.0</ele><time>2026-03-29T05:30:37.372Z</time></trkpt><trkpt lat="22.2584577" lon="113.9997826"><ele>135.0</ele><time>2026-03-29T05:30:41.373Z</time></trkpt><trkpt lat="22.258507" lon="113.9998425"><ele>135.0</ele><time>2026-03-29T05:30:46.373Z</time></trkpt></trkseg></trk></gpx>